<?xml version="1.0" encoding="UTF-8" standalone="no" ?>
<gpx xmlns="http://www.topografix.com/GPX/1/1" xmlns:xsi="http://www.w3.org/2001/XMLSchema-instance" xsi:schemaLocation="http://www.topografix.com/GPX/1/1 http://www.topografix.com/GPX/1/1/gpx.xsd" version="1.1" creator="VisuGPX - https://www.visugpx.com">
  <metadata>
    <name>Rando Camiran</name>
    <desc><![CDATA[RANDO pédestre de Camiran matin le 15 10 2017]]></desc>
  </metadata>
  <trk>
    <name><![CDATA[Tracé 15 oct. 2017 9:36:02 AM]]></name>
    <trkseg>
      <trkpt lat="44.62828" lon="-0.06672">
        <ele>-20.786873333333</ele>
        <time>2017-10-15T07:36:02Z</time>
      </trkpt>
      <trkpt lat="44.6283" lon="-0.06683">
        <ele>-20.786813333333</ele>
        <time>2017-10-15T07:37:00Z</time>
      </trkpt>
      <trkpt lat="44.62836" lon="-0.06692">
        <ele>-20.78656</ele>
        <time>2017-10-15T07:37:07Z</time>
      </trkpt>
      <trkpt lat="44.62844" lon="-0.06694">
        <ele>-20.886233333333</ele>
        <time>2017-10-15T07:37:14Z</time>
      </trkpt>
      <trkpt lat="44.62853" lon="-0.06696">
        <ele>-20.785886666667</ele>
        <time>2017-10-15T07:37:20Z</time>
      </trkpt>
      <trkpt lat="44.62861" lon="-0.06697">
        <ele>-20.885546666667</ele>
        <time>2017-10-15T07:37:35Z</time>
      </trkpt>
      <trkpt lat="44.62869" lon="-0.06701">
        <ele>-20.885233333333</ele>
        <time>2017-10-15T07:37:42Z</time>
      </trkpt>
      <trkpt lat="44.62877" lon="-0.06705">
        <ele>-20.784913333333</ele>
        <time>2017-10-15T07:37:48Z</time>
      </trkpt>
      <trkpt lat="44.62885" lon="-0.06708">
        <ele>-20.784613333333</ele>
        <time>2017-10-15T07:37:56Z</time>
      </trkpt>
      <trkpt lat="44.62891" lon="-0.06712">
        <ele>-20.784353333333</ele>
        <time>2017-10-15T07:38:00Z</time>
      </trkpt>
      <trkpt lat="44.629" lon="-0.06716">
        <ele>-20.683993333333</ele>
        <time>2017-10-15T07:38:04Z</time>
      </trkpt>
      <trkpt lat="44.62908" lon="-0.06718">
        <ele>-20.683666666667</ele>
        <time>2017-10-15T07:38:10Z</time>
      </trkpt>
      <trkpt lat="44.62916" lon="-0.06724">
        <ele>-20.683373333333</ele>
        <time>2017-10-15T07:38:21Z</time>
      </trkpt>
      <trkpt lat="44.62923" lon="-0.06722">
        <ele>-20.683066666667</ele>
        <time>2017-10-15T07:38:25Z</time>
      </trkpt>
      <trkpt lat="44.62932" lon="-0.06718">
        <ele>-20.682733333333</ele>
        <time>2017-10-15T07:38:32Z</time>
      </trkpt>
      <trkpt lat="44.62936" lon="-0.06707">
        <ele>-20.582573333333</ele>
        <time>2017-10-15T07:38:43Z</time>
      </trkpt>
      <trkpt lat="44.62936" lon="-0.06696">
        <ele>-20.582566666667</ele>
        <time>2017-10-15T07:38:50Z</time>
      </trkpt>
      <trkpt lat="44.62937" lon="-0.06684">
        <ele>-20.482513333333</ele>
        <time>2017-10-15T07:38:57Z</time>
      </trkpt>
      <trkpt lat="44.62938" lon="-0.06673">
        <ele>-20.48248</ele>
        <time>2017-10-15T07:39:04Z</time>
      </trkpt>
      <trkpt lat="44.62942" lon="-0.06662">
        <ele>-20.382326666667</ele>
        <time>2017-10-15T07:39:13Z</time>
      </trkpt>
      <trkpt lat="44.6294" lon="-0.0665">
        <ele>-20.382386666667</ele>
        <time>2017-10-15T07:39:21Z</time>
      </trkpt>
      <trkpt lat="44.62945" lon="-0.06632">
        <ele>-20.382193333333</ele>
        <time>2017-10-15T07:39:25Z</time>
      </trkpt>
      <trkpt lat="44.6295" lon="-0.06622">
        <ele>-20.382013333333</ele>
        <time>2017-10-15T07:39:29Z</time>
      </trkpt>
      <trkpt lat="44.62953" lon="-0.06611">
        <ele>-20.381893333333</ele>
        <time>2017-10-15T07:39:33Z</time>
      </trkpt>
      <trkpt lat="44.62956" lon="-0.06601">
        <ele>-20.38176</ele>
        <time>2017-10-15T07:39:37Z</time>
      </trkpt>
      <trkpt lat="44.62958" lon="-0.06592">
        <ele>-20.381693333333</ele>
        <time>2017-10-15T07:39:41Z</time>
      </trkpt>
      <trkpt lat="44.62961" lon="-0.06609">
        <ele>-20.58158</ele>
        <time>2017-10-15T07:39:45Z</time>
      </trkpt>
      <trkpt lat="44.6296" lon="-0.06599">
        <ele>-21.081593333333</ele>
        <time>2017-10-15T07:40:05Z</time>
      </trkpt>
      <trkpt lat="44.6297" lon="-0.06587">
        <ele>-21.38122</ele>
        <time>2017-10-15T07:40:09Z</time>
      </trkpt>
      <trkpt lat="44.62976" lon="-0.06579">
        <ele>-21.480953333333</ele>
        <time>2017-10-15T07:40:13Z</time>
      </trkpt>
      <trkpt lat="44.62979" lon="-0.06568">
        <ele>-21.580826666667</ele>
        <time>2017-10-15T07:40:18Z</time>
      </trkpt>
      <trkpt lat="44.62985" lon="-0.06559">
        <ele>-21.5806</ele>
        <time>2017-10-15T07:40:23Z</time>
      </trkpt>
      <trkpt lat="44.62989" lon="-0.0655">
        <ele>-21.680433333333</ele>
        <time>2017-10-15T07:40:29Z</time>
      </trkpt>
      <trkpt lat="44.62993" lon="-0.06539">
        <ele>-21.78028</ele>
        <time>2017-10-15T07:40:37Z</time>
      </trkpt>
      <trkpt lat="44.62994" lon="-0.06527">
        <ele>-21.680246666667</ele>
        <time>2017-10-15T07:40:42Z</time>
      </trkpt>
      <trkpt lat="44.62996" lon="-0.06513">
        <ele>-21.580173333333</ele>
        <time>2017-10-15T07:40:47Z</time>
      </trkpt>
      <trkpt lat="44.62998" lon="-0.06499">
        <ele>-21.5801</ele>
        <time>2017-10-15T07:40:51Z</time>
      </trkpt>
      <trkpt lat="44.62999" lon="-0.06488">
        <ele>-21.48006</ele>
        <time>2017-10-15T07:40:55Z</time>
      </trkpt>
      <trkpt lat="44.63006" lon="-0.06479">
        <ele>-21.879753333333</ele>
        <time>2017-10-15T07:41:00Z</time>
      </trkpt>
      <trkpt lat="44.63013" lon="-0.0647">
        <ele>-22.079486666667</ele>
        <time>2017-10-15T07:41:07Z</time>
      </trkpt>
      <trkpt lat="44.63015" lon="-0.06459">
        <ele>-22.279406666667</ele>
        <time>2017-10-15T07:41:17Z</time>
      </trkpt>
      <trkpt lat="44.63012" lon="-0.06447">
        <ele>-22.179513333333</ele>
        <time>2017-10-15T07:41:23Z</time>
      </trkpt>
      <trkpt lat="44.63008" lon="-0.06437">
        <ele>-21.879686666667</ele>
        <time>2017-10-15T07:41:29Z</time>
      </trkpt>
      <trkpt lat="44.63005" lon="-0.06425">
        <ele>-21.67982</ele>
        <time>2017-10-15T07:41:36Z</time>
      </trkpt>
      <trkpt lat="44.63001" lon="-0.06414">
        <ele>-21.879966666667</ele>
        <time>2017-10-15T07:41:43Z</time>
      </trkpt>
      <trkpt lat="44.62998" lon="-0.06404">
        <ele>-21.180093333333</ele>
        <time>2017-10-15T07:41:50Z</time>
      </trkpt>
      <trkpt lat="44.62996" lon="-0.06392">
        <ele>-19.78018</ele>
        <time>2017-10-15T07:41:57Z</time>
      </trkpt>
      <trkpt lat="44.62993" lon="-0.0638">
        <ele>-19.98028</ele>
        <time>2017-10-15T07:42:04Z</time>
      </trkpt>
      <trkpt lat="44.62994" lon="-0.06368">
        <ele>-21.48024</ele>
        <time>2017-10-15T07:42:11Z</time>
      </trkpt>
      <trkpt lat="44.62997" lon="-0.06357">
        <ele>-21.580133333333</ele>
        <time>2017-10-15T07:42:16Z</time>
      </trkpt>
      <trkpt lat="44.62999" lon="-0.06346">
        <ele>-21.580033333333</ele>
        <time>2017-10-15T07:42:22Z</time>
      </trkpt>
      <trkpt lat="44.63003" lon="-0.06335">
        <ele>-23.27988</ele>
        <time>2017-10-15T07:42:35Z</time>
      </trkpt>
      <trkpt lat="44.63004" lon="-0.06323">
        <ele>-18.07986</ele>
        <time>2017-10-15T07:42:44Z</time>
      </trkpt>
      <trkpt lat="44.63006" lon="-0.06313">
        <ele>-13.679773333333</ele>
        <time>2017-10-15T07:42:49Z</time>
      </trkpt>
      <trkpt lat="44.63003" lon="-0.06299">
        <ele>-10.879866666667</ele>
        <time>2017-10-15T07:42:53Z</time>
      </trkpt>
      <trkpt lat="44.63005" lon="-0.06287">
        <ele>-6.67982</ele>
        <time>2017-10-15T07:43:01Z</time>
      </trkpt>
      <trkpt lat="44.63003" lon="-0.06276">
        <ele>-6.97988</ele>
        <time>2017-10-15T07:43:06Z</time>
      </trkpt>
      <trkpt lat="44.63001" lon="-0.06264">
        <ele>-2.9799466666667</ele>
        <time>2017-10-15T07:43:11Z</time>
      </trkpt>
      <trkpt lat="44.63" lon="-0.06252">
        <ele>3.7200133333333</ele>
        <time>2017-10-15T07:43:19Z</time>
      </trkpt>
      <trkpt lat="44.62997" lon="-0.06241">
        <ele>6.8198733333333</ele>
        <time>2017-10-15T07:43:26Z</time>
      </trkpt>
      <trkpt lat="44.62998" lon="-0.06229">
        <ele>5.9199333333333</ele>
        <time>2017-10-15T07:43:34Z</time>
      </trkpt>
      <trkpt lat="44.62997" lon="-0.06219">
        <ele>3.0198666666666</ele>
        <time>2017-10-15T07:43:40Z</time>
      </trkpt>
      <trkpt lat="44.63002" lon="-0.06208">
        <ele>-4.17994</ele>
        <time>2017-10-15T07:43:45Z</time>
      </trkpt>
      <trkpt lat="44.63" lon="-0.06196">
        <ele>-10.58</ele>
        <time>2017-10-15T07:43:52Z</time>
      </trkpt>
      <trkpt lat="44.63008" lon="-0.06192">
        <ele>11.120326666667</ele>
        <time>2017-10-15T07:44:00Z</time>
      </trkpt>
      <trkpt lat="44.63017" lon="-0.06191">
        <ele>23.92068</ele>
        <time>2017-10-15T07:44:07Z</time>
      </trkpt>
      <trkpt lat="44.63025" lon="-0.06188">
        <ele>25.32098</ele>
        <time>2017-10-15T07:44:12Z</time>
      </trkpt>
      <trkpt lat="44.63032" lon="-0.06186">
        <ele>21.521293333333</ele>
        <time>2017-10-15T07:44:18Z</time>
      </trkpt>
      <trkpt lat="44.6304" lon="-0.06187">
        <ele>10.621613333333</ele>
        <time>2017-10-15T07:44:23Z</time>
      </trkpt>
      <trkpt lat="44.63048" lon="-0.0618">
        <ele>-8.9781</ele>
        <time>2017-10-15T07:44:38Z</time>
      </trkpt>
      <trkpt lat="44.63055" lon="-0.06179">
        <ele>-24.0778</ele>
        <time>2017-10-15T07:44:47Z</time>
      </trkpt>
      <trkpt lat="44.63061" lon="-0.06171">
        <ele>-26.277553333333</ele>
        <time>2017-10-15T07:44:52Z</time>
      </trkpt>
      <trkpt lat="44.63062" lon="-0.0616">
        <ele>-30.37754</ele>
        <time>2017-10-15T07:45:03Z</time>
      </trkpt>
      <trkpt lat="44.63063" lon="-0.06149">
        <ele>-29.5775</ele>
        <time>2017-10-15T07:45:08Z</time>
      </trkpt>
      <trkpt lat="44.63064" lon="-0.06136">
        <ele>-29.677433333333</ele>
        <time>2017-10-15T07:45:14Z</time>
      </trkpt>
      <trkpt lat="44.63065" lon="-0.06124">
        <ele>-30.077393333333</ele>
        <time>2017-10-15T07:45:19Z</time>
      </trkpt>
      <trkpt lat="44.63069" lon="-0.06114">
        <ele>-30.777253333333</ele>
        <time>2017-10-15T07:45:24Z</time>
      </trkpt>
      <trkpt lat="44.63071" lon="-0.06103">
        <ele>-34.17718</ele>
        <time>2017-10-15T07:45:31Z</time>
      </trkpt>
      <trkpt lat="44.63078" lon="-0.06096">
        <ele>-36.87688</ele>
        <time>2017-10-15T07:45:35Z</time>
      </trkpt>
      <trkpt lat="44.63076" lon="-0.06083">
        <ele>-41.676966666667</ele>
        <time>2017-10-15T07:45:43Z</time>
      </trkpt>
      <trkpt lat="44.63068" lon="-0.06078">
        <ele>-45.777273333333</ele>
        <time>2017-10-15T07:45:51Z</time>
      </trkpt>
      <trkpt lat="44.63062" lon="-0.0607">
        <ele>-48.07754</ele>
        <time>2017-10-15T07:45:58Z</time>
      </trkpt>
      <trkpt lat="44.63055" lon="-0.06064">
        <ele>-49.07782</ele>
        <time>2017-10-15T07:46:03Z</time>
      </trkpt>
      <trkpt lat="44.63048" lon="-0.06058">
        <ele>-49.27808</ele>
        <time>2017-10-15T07:46:08Z</time>
      </trkpt>
      <trkpt lat="44.6304" lon="-0.06055">
        <ele>-25.97842</ele>
        <time>2017-10-15T07:46:20Z</time>
      </trkpt>
      <trkpt lat="44.63031" lon="-0.06053">
        <ele>-0.67875333333335</ele>
        <time>2017-10-15T07:46:26Z</time>
      </trkpt>
      <trkpt lat="44.63025" lon="-0.06043">
        <ele>6.321</ele>
        <time>2017-10-15T07:46:31Z</time>
      </trkpt>
      <trkpt lat="44.63018" lon="-0.06036">
        <ele>14.52072</ele>
        <time>2017-10-15T07:46:38Z</time>
      </trkpt>
      <trkpt lat="44.63014" lon="-0.06023">
        <ele>9.0205666666667</ele>
        <time>2017-10-15T07:46:42Z</time>
      </trkpt>
      <trkpt lat="44.63009" lon="-0.06014">
        <ele>7.52036</ele>
        <time>2017-10-15T07:46:49Z</time>
      </trkpt>
      <trkpt lat="44.63002" lon="-0.06007">
        <ele>-1.17992</ele>
        <time>2017-10-15T07:46:58Z</time>
      </trkpt>
      <trkpt lat="44.62995" lon="-0.06002">
        <ele>-4.3802133333333</ele>
        <time>2017-10-15T07:47:05Z</time>
      </trkpt>
      <trkpt lat="44.62987" lon="-0.05996">
        <ele>-11.68052</ele>
        <time>2017-10-15T07:47:13Z</time>
      </trkpt>
      <trkpt lat="44.62981" lon="-0.0599">
        <ele>-13.08078</ele>
        <time>2017-10-15T07:47:19Z</time>
      </trkpt>
      <trkpt lat="44.62973" lon="-0.05985">
        <ele>-14.081093333333</ele>
        <time>2017-10-15T07:47:25Z</time>
      </trkpt>
      <trkpt lat="44.62966" lon="-0.05977">
        <ele>-11.481346666667</ele>
        <time>2017-10-15T07:47:33Z</time>
      </trkpt>
      <trkpt lat="44.62963" lon="-0.05966">
        <ele>-8.2814933333333</ele>
        <time>2017-10-15T07:47:42Z</time>
      </trkpt>
      <trkpt lat="44.62961" lon="-0.05954">
        <ele>-6.08158</ele>
        <time>2017-10-15T07:47:48Z</time>
      </trkpt>
      <trkpt lat="44.62957" lon="-0.05943">
        <ele>-13.781706666667</ele>
        <time>2017-10-15T07:47:54Z</time>
      </trkpt>
      <trkpt lat="44.62949" lon="-0.05943">
        <ele>-31.982033333333</ele>
        <time>2017-10-15T07:48:27Z</time>
      </trkpt>
      <trkpt lat="44.62941" lon="-0.05948">
        <ele>-39.882346666667</ele>
        <time>2017-10-15T07:48:34Z</time>
      </trkpt>
      <trkpt lat="44.62933" lon="-0.05952">
        <ele>-48.482686666667</ele>
        <time>2017-10-15T07:48:41Z</time>
      </trkpt>
      <trkpt lat="44.62924" lon="-0.05955">
        <ele>-55.183026666667</ele>
        <time>2017-10-15T07:48:48Z</time>
      </trkpt>
      <trkpt lat="44.62916" lon="-0.05956">
        <ele>-56.98338</ele>
        <time>2017-10-15T07:48:54Z</time>
      </trkpt>
      <trkpt lat="44.62907" lon="-0.05956">
        <ele>-50.983713333333</ele>
        <time>2017-10-15T07:49:03Z</time>
      </trkpt>
      <trkpt lat="44.62899" lon="-0.05958">
        <ele>-45.984046666667</ele>
        <time>2017-10-15T07:49:09Z</time>
      </trkpt>
      <trkpt lat="44.6289" lon="-0.05961">
        <ele>-41.484386666667</ele>
        <time>2017-10-15T07:49:15Z</time>
      </trkpt>
      <trkpt lat="44.62883" lon="-0.05964">
        <ele>-40.584673333333</ele>
        <time>2017-10-15T07:49:20Z</time>
      </trkpt>
      <trkpt lat="44.62875" lon="-0.05964">
        <ele>-39.784986666667</ele>
        <time>2017-10-15T07:49:26Z</time>
      </trkpt>
      <trkpt lat="44.62867" lon="-0.05963">
        <ele>-45.185326666667</ele>
        <time>2017-10-15T07:49:34Z</time>
      </trkpt>
      <trkpt lat="44.6286" lon="-0.05956">
        <ele>-53.685606666667</ele>
        <time>2017-10-15T07:49:54Z</time>
      </trkpt>
      <trkpt lat="44.62853" lon="-0.05948">
        <ele>-60.685866666667</ele>
        <time>2017-10-15T07:50:00Z</time>
      </trkpt>
      <trkpt lat="44.62845" lon="-0.05947">
        <ele>-56.286213333333</ele>
        <time>2017-10-15T07:50:12Z</time>
      </trkpt>
      <trkpt lat="44.62838" lon="-0.05941">
        <ele>-61.286473333333</ele>
        <time>2017-10-15T07:50:23Z</time>
      </trkpt>
      <trkpt lat="44.62831" lon="-0.05933">
        <ele>-69.586753333333</ele>
        <time>2017-10-15T07:50:34Z</time>
      </trkpt>
      <trkpt lat="44.62823" lon="-0.05931">
        <ele>-66.88708</ele>
        <time>2017-10-15T07:50:46Z</time>
      </trkpt>
      <trkpt lat="44.62817" lon="-0.05936">
        <ele>-66.487326666667</ele>
        <time>2017-10-15T07:50:50Z</time>
      </trkpt>
      <trkpt lat="44.62807" lon="-0.05943">
        <ele>-62.987713333333</ele>
        <time>2017-10-15T07:50:55Z</time>
      </trkpt>
      <trkpt lat="44.62796" lon="-0.05953">
        <ele>-56.488173333333</ele>
        <time>2017-10-15T07:51:00Z</time>
      </trkpt>
      <trkpt lat="44.62787" lon="-0.05959">
        <ele>-49.888506666667</ele>
        <time>2017-10-15T07:51:04Z</time>
      </trkpt>
      <trkpt lat="44.62778" lon="-0.05966">
        <ele>-39.38888</ele>
        <time>2017-10-15T07:51:09Z</time>
      </trkpt>
      <trkpt lat="44.62771" lon="-0.05969">
        <ele>-32.489166666667</ele>
        <time>2017-10-15T07:51:14Z</time>
      </trkpt>
      <trkpt lat="44.62762" lon="-0.0597">
        <ele>-28.889506666667</ele>
        <time>2017-10-15T07:51:21Z</time>
      </trkpt>
      <trkpt lat="44.62754" lon="-0.05972">
        <ele>-26.38986</ele>
        <time>2017-10-15T07:51:28Z</time>
      </trkpt>
      <trkpt lat="44.62745" lon="-0.05976">
        <ele>-26.590193333333</ele>
        <time>2017-10-15T07:51:33Z</time>
      </trkpt>
      <trkpt lat="44.62737" lon="-0.05979">
        <ele>-28.79054</ele>
        <time>2017-10-15T07:51:40Z</time>
      </trkpt>
      <trkpt lat="44.62728" lon="-0.05979">
        <ele>-28.79088</ele>
        <time>2017-10-15T07:51:49Z</time>
      </trkpt>
      <trkpt lat="44.62719" lon="-0.0598">
        <ele>-26.391233333333</ele>
        <time>2017-10-15T07:51:57Z</time>
      </trkpt>
      <trkpt lat="44.62711" lon="-0.05983">
        <ele>-23.291553333333</ele>
        <time>2017-10-15T07:52:04Z</time>
      </trkpt>
      <trkpt lat="44.62703" lon="-0.05981">
        <ele>-16.691873333333</ele>
        <time>2017-10-15T07:52:16Z</time>
      </trkpt>
      <trkpt lat="44.62701" lon="-0.0597">
        <ele>-21.691953333333</ele>
        <time>2017-10-15T07:52:23Z</time>
      </trkpt>
      <trkpt lat="44.62695" lon="-0.05963">
        <ele>-24.692206666667</ele>
        <time>2017-10-15T07:52:30Z</time>
      </trkpt>
      <trkpt lat="44.62689" lon="-0.05954">
        <ele>-21.89244</ele>
        <time>2017-10-15T07:52:38Z</time>
      </trkpt>
      <trkpt lat="44.62682" lon="-0.05949">
        <ele>-18.892733333333</ele>
        <time>2017-10-15T07:52:44Z</time>
      </trkpt>
      <trkpt lat="44.62674" lon="-0.05943">
        <ele>-16.593026666667</ele>
        <time>2017-10-15T07:52:53Z</time>
      </trkpt>
      <trkpt lat="44.62666" lon="-0.05942">
        <ele>-13.69336</ele>
        <time>2017-10-15T07:53:01Z</time>
      </trkpt>
      <trkpt lat="44.62658" lon="-0.0594">
        <ele>-12.093686666667</ele>
        <time>2017-10-15T07:53:08Z</time>
      </trkpt>
      <trkpt lat="44.6265" lon="-0.05934">
        <ele>-11.093993333333</ele>
        <time>2017-10-15T07:53:15Z</time>
      </trkpt>
      <trkpt lat="44.62644" lon="-0.05928">
        <ele>-11.794253333333</ele>
        <time>2017-10-15T07:53:23Z</time>
      </trkpt>
      <trkpt lat="44.62644" lon="-0.05916">
        <ele>-14.39426</ele>
        <time>2017-10-15T07:53:35Z</time>
      </trkpt>
      <trkpt lat="44.62649" lon="-0.05907">
        <ele>-16.69406</ele>
        <time>2017-10-15T07:53:42Z</time>
      </trkpt>
      <trkpt lat="44.62655" lon="-0.05899">
        <ele>-18.993813333333</ele>
        <time>2017-10-15T07:53:48Z</time>
      </trkpt>
      <trkpt lat="44.62659" lon="-0.05889">
        <ele>-25.99364</ele>
        <time>2017-10-15T07:53:57Z</time>
      </trkpt>
      <trkpt lat="44.62665" lon="-0.05881">
        <ele>-27.693413333333</ele>
        <time>2017-10-15T07:54:03Z</time>
      </trkpt>
      <trkpt lat="44.62668" lon="-0.0587">
        <ele>-26.89328</ele>
        <time>2017-10-15T07:54:08Z</time>
      </trkpt>
      <trkpt lat="44.62673" lon="-0.05861">
        <ele>-25.193066666667</ele>
        <time>2017-10-15T07:54:14Z</time>
      </trkpt>
      <trkpt lat="44.62678" lon="-0.05851">
        <ele>-22.792893333333</ele>
        <time>2017-10-15T07:54:21Z</time>
      </trkpt>
      <trkpt lat="44.62682" lon="-0.05841">
        <ele>-18.792726666667</ele>
        <time>2017-10-15T07:54:29Z</time>
      </trkpt>
      <trkpt lat="44.62687" lon="-0.05832">
        <ele>-18.59254</ele>
        <time>2017-10-15T07:54:35Z</time>
      </trkpt>
      <trkpt lat="44.62689" lon="-0.05821">
        <ele>-13.392433333333</ele>
        <time>2017-10-15T07:54:41Z</time>
      </trkpt>
      <trkpt lat="44.62693" lon="-0.0581">
        <ele>-9.7923</ele>
        <time>2017-10-15T07:54:48Z</time>
      </trkpt>
      <trkpt lat="44.62697" lon="-0.058">
        <ele>-8.69214</ele>
        <time>2017-10-15T07:54:55Z</time>
      </trkpt>
      <trkpt lat="44.62701" lon="-0.05789">
        <ele>-4.8919733333333</ele>
        <time>2017-10-15T07:55:04Z</time>
      </trkpt>
      <trkpt lat="44.62704" lon="-0.05778">
        <ele>-11.991853333333</ele>
        <time>2017-10-15T07:55:23Z</time>
      </trkpt>
      <trkpt lat="44.62705" lon="-0.05771">
        <ele>-17.4918</ele>
        <time>2017-10-15T07:55:39Z</time>
      </trkpt>
      <trkpt lat="44.62711" lon="-0.05762">
        <ele>-29.491566666667</ele>
        <time>2017-10-15T07:56:15Z</time>
      </trkpt>
      <trkpt lat="44.62718" lon="-0.05762">
        <ele>-21.691293333333</ele>
        <time>2017-10-15T07:56:41Z</time>
      </trkpt>
      <trkpt lat="44.62709" lon="-0.05762">
        <ele>-35.891646666667</ele>
        <time>2017-10-15T07:57:28Z</time>
      </trkpt>
      <trkpt lat="44.62701" lon="-0.05763">
        <ele>-36.191953333333</ele>
        <time>2017-10-15T07:57:45Z</time>
      </trkpt>
      <trkpt lat="44.62706" lon="-0.05769">
        <ele>-23.691746666667</ele>
        <time>2017-10-15T07:58:28Z</time>
      </trkpt>
      <trkpt lat="44.62701" lon="-0.05772">
        <ele>6.8080533333333</ele>
        <time>2017-10-15T07:58:44Z</time>
      </trkpt>
      <trkpt lat="44.62707" lon="-0.05764">
        <ele>-1.5917066666667</ele>
        <time>2017-10-15T07:58:56Z</time>
      </trkpt>
      <trkpt lat="44.62701" lon="-0.05762">
        <ele>-24.691953333333</ele>
        <time>2017-10-15T08:00:03Z</time>
      </trkpt>
      <trkpt lat="44.62693" lon="-0.0576">
        <ele>-14.492293333333</ele>
        <time>2017-10-15T08:00:13Z</time>
      </trkpt>
      <trkpt lat="44.62685" lon="-0.05757">
        <ele>-17.2926</ele>
        <time>2017-10-15T08:00:22Z</time>
      </trkpt>
      <trkpt lat="44.62679" lon="-0.05747">
        <ele>-19.792826666667</ele>
        <time>2017-10-15T08:00:30Z</time>
      </trkpt>
      <trkpt lat="44.62676" lon="-0.05736">
        <ele>-22.19296</ele>
        <time>2017-10-15T08:00:42Z</time>
      </trkpt>
      <trkpt lat="44.62675" lon="-0.05724">
        <ele>-26.293006666667</ele>
        <time>2017-10-15T08:00:54Z</time>
      </trkpt>
      <trkpt lat="44.62677" lon="-0.05713">
        <ele>-25.89294</ele>
        <time>2017-10-15T08:01:02Z</time>
      </trkpt>
      <trkpt lat="44.62676" lon="-0.057">
        <ele>-26.192946666667</ele>
        <time>2017-10-15T08:01:08Z</time>
      </trkpt>
      <trkpt lat="44.62677" lon="-0.05689">
        <ele>-26.79292</ele>
        <time>2017-10-15T08:01:16Z</time>
      </trkpt>
      <trkpt lat="44.62678" lon="-0.05677">
        <ele>-31.29288</ele>
        <time>2017-10-15T08:01:26Z</time>
      </trkpt>
      <trkpt lat="44.62682" lon="-0.05666">
        <ele>-36.39272</ele>
        <time>2017-10-15T08:01:47Z</time>
      </trkpt>
      <trkpt lat="44.62683" lon="-0.05653">
        <ele>-31.392673333333</ele>
        <time>2017-10-15T08:01:52Z</time>
      </trkpt>
      <trkpt lat="44.62685" lon="-0.05642">
        <ele>-25.892613333333</ele>
        <time>2017-10-15T08:01:57Z</time>
      </trkpt>
      <trkpt lat="44.62685" lon="-0.05628">
        <ele>-24.792613333333</ele>
        <time>2017-10-15T08:02:02Z</time>
      </trkpt>
      <trkpt lat="44.62684" lon="-0.05616">
        <ele>-21.492633333333</ele>
        <time>2017-10-15T08:02:07Z</time>
      </trkpt>
      <trkpt lat="44.62685" lon="-0.05603">
        <ele>-17.492613333333</ele>
        <time>2017-10-15T08:02:12Z</time>
      </trkpt>
      <trkpt lat="44.6269" lon="-0.05593">
        <ele>-20.39242</ele>
        <time>2017-10-15T08:02:22Z</time>
      </trkpt>
      <trkpt lat="44.62688" lon="-0.05582">
        <ele>-16.892473333333</ele>
        <time>2017-10-15T08:02:30Z</time>
      </trkpt>
      <trkpt lat="44.62689" lon="-0.0557">
        <ele>-17.192453333333</ele>
        <time>2017-10-15T08:02:38Z</time>
      </trkpt>
      <trkpt lat="44.62689" lon="-0.05558">
        <ele>-18.49244</ele>
        <time>2017-10-15T08:02:45Z</time>
      </trkpt>
      <trkpt lat="44.6269" lon="-0.05545">
        <ele>-19.992393333333</ele>
        <time>2017-10-15T08:02:52Z</time>
      </trkpt>
      <trkpt lat="44.6269" lon="-0.05533">
        <ele>-20.092393333333</ele>
        <time>2017-10-15T08:02:59Z</time>
      </trkpt>
      <trkpt lat="44.62691" lon="-0.05521">
        <ele>-18.392373333333</ele>
        <time>2017-10-15T08:03:07Z</time>
      </trkpt>
      <trkpt lat="44.6269" lon="-0.0551">
        <ele>-15.492406666667</ele>
        <time>2017-10-15T08:03:15Z</time>
      </trkpt>
      <trkpt lat="44.62686" lon="-0.05499">
        <ele>-15.292553333333</ele>
        <time>2017-10-15T08:03:23Z</time>
      </trkpt>
      <trkpt lat="44.62679" lon="-0.05493">
        <ele>-17.292853333333</ele>
        <time>2017-10-15T08:03:32Z</time>
      </trkpt>
      <trkpt lat="44.6267" lon="-0.05491">
        <ele>-22.593206666667</ele>
        <time>2017-10-15T08:03:42Z</time>
      </trkpt>
      <trkpt lat="44.62662" lon="-0.05491">
        <ele>-22.293533333333</ele>
        <time>2017-10-15T08:03:48Z</time>
      </trkpt>
      <trkpt lat="44.62653" lon="-0.0549">
        <ele>-20.393866666667</ele>
        <time>2017-10-15T08:03:54Z</time>
      </trkpt>
      <trkpt lat="44.62645" lon="-0.05487">
        <ele>-21.7942</ele>
        <time>2017-10-15T08:04:04Z</time>
      </trkpt>
      <trkpt lat="44.62637" lon="-0.05486">
        <ele>-10.994513333333</ele>
        <time>2017-10-15T08:04:17Z</time>
      </trkpt>
      <trkpt lat="44.62629" lon="-0.05489">
        <ele>-3.0948466666667</ele>
        <time>2017-10-15T08:04:27Z</time>
      </trkpt>
      <trkpt lat="44.62622" lon="-0.05495">
        <ele>0.30487999999998</ele>
        <time>2017-10-15T08:04:34Z</time>
      </trkpt>
      <trkpt lat="44.62615" lon="-0.055">
        <ele>-0.69541333333335</ele>
        <time>2017-10-15T08:04:43Z</time>
      </trkpt>
      <trkpt lat="44.62607" lon="-0.05504">
        <ele>-2.99574</ele>
        <time>2017-10-15T08:04:49Z</time>
      </trkpt>
      <trkpt lat="44.626" lon="-0.05496">
        <ele>-3.596</ele>
        <time>2017-10-15T08:05:02Z</time>
      </trkpt>
      <trkpt lat="44.62591" lon="-0.05499">
        <ele>-5.2963466666667</ele>
        <time>2017-10-15T08:05:11Z</time>
      </trkpt>
      <trkpt lat="44.62583" lon="-0.05502">
        <ele>-5.7966866666667</ele>
        <time>2017-10-15T08:05:18Z</time>
      </trkpt>
      <trkpt lat="44.62575" lon="-0.05503">
        <ele>-6.1970066666667</ele>
        <time>2017-10-15T08:05:25Z</time>
      </trkpt>
      <trkpt lat="44.62566" lon="-0.05505">
        <ele>-5.79736</ele>
        <time>2017-10-15T08:05:34Z</time>
      </trkpt>
      <trkpt lat="44.62558" lon="-0.05505">
        <ele>-4.3977</ele>
        <time>2017-10-15T08:05:44Z</time>
      </trkpt>
      <trkpt lat="44.6255" lon="-0.05504">
        <ele>-8.1980066666666</ele>
        <time>2017-10-15T08:05:50Z</time>
      </trkpt>
      <trkpt lat="44.62542" lon="-0.05504">
        <ele>-13.098326666667</ele>
        <time>2017-10-15T08:05:56Z</time>
      </trkpt>
      <trkpt lat="44.62533" lon="-0.05502">
        <ele>-12.398673333333</ele>
        <time>2017-10-15T08:06:05Z</time>
      </trkpt>
      <trkpt lat="44.62525" lon="-0.055">
        <ele>-9.999</ele>
        <time>2017-10-15T08:06:12Z</time>
      </trkpt>
      <trkpt lat="44.62517" lon="-0.055">
        <ele>-9.3993066666667</ele>
        <time>2017-10-15T08:06:18Z</time>
      </trkpt>
      <trkpt lat="44.62509" lon="-0.05503">
        <ele>-6.0996333333333</ele>
        <time>2017-10-15T08:06:26Z</time>
      </trkpt>
      <trkpt lat="44.62501" lon="-0.05505">
        <ele>-3.79998</ele>
        <time>2017-10-15T08:06:42Z</time>
      </trkpt>
      <trkpt lat="44.62498" lon="-0.05497">
        <ele>6.2999266666667</ele>
        <time>2017-10-15T08:06:58Z</time>
      </trkpt>
      <trkpt lat="44.62502" lon="-0.05486">
        <ele>-5.8999333333333</ele>
        <time>2017-10-15T08:07:18Z</time>
      </trkpt>
      <trkpt lat="44.62504" lon="-0.05474">
        <ele>-3.69986</ele>
        <time>2017-10-15T08:07:30Z</time>
      </trkpt>
      <trkpt lat="44.62504" lon="-0.05463">
        <ele>-4.5998266666667</ele>
        <time>2017-10-15T08:07:40Z</time>
      </trkpt>
      <trkpt lat="44.62511" lon="-0.05454">
        <ele>-2.8995466666666</ele>
        <time>2017-10-15T08:07:44Z</time>
      </trkpt>
      <trkpt lat="44.62506" lon="-0.05445">
        <ele>-0.39975333333333</ele>
        <time>2017-10-15T08:07:50Z</time>
      </trkpt>
      <trkpt lat="44.62509" lon="-0.05435">
        <ele>-8.4996266666666</ele>
        <time>2017-10-15T08:07:58Z</time>
      </trkpt>
      <trkpt lat="44.62508" lon="-0.05424">
        <ele>-2.2997</ele>
        <time>2017-10-15T08:08:05Z</time>
      </trkpt>
      <trkpt lat="44.62507" lon="-0.05411">
        <ele>-4.7997133333333</ele>
        <time>2017-10-15T08:08:12Z</time>
      </trkpt>
      <trkpt lat="44.62509" lon="-0.05399">
        <ele>-8.3996466666667</ele>
        <time>2017-10-15T08:08:23Z</time>
      </trkpt>
      <trkpt lat="44.62508" lon="-0.05387">
        <ele>-15.699673333333</ele>
        <time>2017-10-15T08:08:32Z</time>
      </trkpt>
      <trkpt lat="44.62503" lon="-0.05378">
        <ele>-16.599893333333</ele>
        <time>2017-10-15T08:08:39Z</time>
      </trkpt>
      <trkpt lat="44.625" lon="-0.05366">
        <ele>-17.80002</ele>
        <time>2017-10-15T08:08:46Z</time>
      </trkpt>
      <trkpt lat="44.62497" lon="-0.05355">
        <ele>-18.500113333333</ele>
        <time>2017-10-15T08:08:54Z</time>
      </trkpt>
      <trkpt lat="44.625" lon="-0.05345">
        <ele>-15.8</ele>
        <time>2017-10-15T08:08:59Z</time>
      </trkpt>
      <trkpt lat="44.62501" lon="-0.05336">
        <ele>-16.59996</ele>
        <time>2017-10-15T08:09:03Z</time>
      </trkpt>
      <trkpt lat="44.62501" lon="-0.05324">
        <ele>-21.69998</ele>
        <time>2017-10-15T08:09:09Z</time>
      </trkpt>
      <trkpt lat="44.62498" lon="-0.05313">
        <ele>-17.200086666667</ele>
        <time>2017-10-15T08:09:19Z</time>
      </trkpt>
      <trkpt lat="44.62498" lon="-0.053">
        <ele>-16.000093333333</ele>
        <time>2017-10-15T08:09:27Z</time>
      </trkpt>
      <trkpt lat="44.62496" lon="-0.05289">
        <ele>-15.600153333333</ele>
        <time>2017-10-15T08:09:37Z</time>
      </trkpt>
      <trkpt lat="44.62497" lon="-0.05277">
        <ele>-19.400126666667</ele>
        <time>2017-10-15T08:09:44Z</time>
      </trkpt>
      <trkpt lat="44.62496" lon="-0.05265">
        <ele>-21.90018</ele>
        <time>2017-10-15T08:09:52Z</time>
      </trkpt>
      <trkpt lat="44.62497" lon="-0.05254">
        <ele>-26.200113333333</ele>
        <time>2017-10-15T08:10:00Z</time>
      </trkpt>
      <trkpt lat="44.62495" lon="-0.05242">
        <ele>-25.500213333333</ele>
        <time>2017-10-15T08:10:07Z</time>
      </trkpt>
      <trkpt lat="44.62495" lon="-0.05229">
        <ele>-21.5002</ele>
        <time>2017-10-15T08:10:15Z</time>
      </trkpt>
      <trkpt lat="44.62494" lon="-0.05218">
        <ele>-21.80024</ele>
        <time>2017-10-15T08:10:21Z</time>
      </trkpt>
      <trkpt lat="44.62493" lon="-0.05207">
        <ele>-20.600293333333</ele>
        <time>2017-10-15T08:10:27Z</time>
      </trkpt>
      <trkpt lat="44.62493" lon="-0.05196">
        <ele>-19.700286666667</ele>
        <time>2017-10-15T08:10:33Z</time>
      </trkpt>
      <trkpt lat="44.62491" lon="-0.05184">
        <ele>-16.100353333333</ele>
        <time>2017-10-15T08:10:39Z</time>
      </trkpt>
      <trkpt lat="44.6249" lon="-0.05173">
        <ele>-13.1004</ele>
        <time>2017-10-15T08:10:46Z</time>
      </trkpt>
      <trkpt lat="44.62488" lon="-0.05162">
        <ele>-7.2004666666667</ele>
        <time>2017-10-15T08:10:51Z</time>
      </trkpt>
      <trkpt lat="44.62487" lon="-0.05151">
        <ele>-1.6005333333333</ele>
        <time>2017-10-15T08:10:57Z</time>
      </trkpt>
      <trkpt lat="44.62488" lon="-0.05141">
        <ele>-2.3004666666667</ele>
        <time>2017-10-15T08:11:03Z</time>
      </trkpt>
      <trkpt lat="44.62491" lon="-0.0513">
        <ele>-0.60037999999998</ele>
        <time>2017-10-15T08:11:10Z</time>
      </trkpt>
      <trkpt lat="44.62493" lon="-0.05118">
        <ele>-1.9002933333333</ele>
        <time>2017-10-15T08:11:18Z</time>
      </trkpt>
      <trkpt lat="44.62491" lon="-0.05107">
        <ele>0.19964666666668</ele>
        <time>2017-10-15T08:11:29Z</time>
      </trkpt>
      <trkpt lat="44.62492" lon="-0.05094">
        <ele>-7.30032</ele>
        <time>2017-10-15T08:11:35Z</time>
      </trkpt>
      <trkpt lat="44.6249" lon="-0.05083">
        <ele>-9.10042</ele>
        <time>2017-10-15T08:11:42Z</time>
      </trkpt>
      <trkpt lat="44.62489" lon="-0.05071">
        <ele>-7.7004466666667</ele>
        <time>2017-10-15T08:11:49Z</time>
      </trkpt>
      <trkpt lat="44.6249" lon="-0.05059">
        <ele>-8.4004133333333</ele>
        <time>2017-10-15T08:12:00Z</time>
      </trkpt>
      <trkpt lat="44.62492" lon="-0.05047">
        <ele>-16.400333333333</ele>
        <time>2017-10-15T08:12:11Z</time>
      </trkpt>
      <trkpt lat="44.62492" lon="-0.05035">
        <ele>-18.100333333333</ele>
        <time>2017-10-15T08:12:21Z</time>
      </trkpt>
      <trkpt lat="44.62492" lon="-0.05024">
        <ele>-17.50032</ele>
        <time>2017-10-15T08:12:27Z</time>
      </trkpt>
      <trkpt lat="44.62493" lon="-0.05011">
        <ele>-18.900273333333</ele>
        <time>2017-10-15T08:12:34Z</time>
      </trkpt>
      <trkpt lat="44.62494" lon="-0.04999">
        <ele>-21.400226666667</ele>
        <time>2017-10-15T08:12:41Z</time>
      </trkpt>
      <trkpt lat="44.62494" lon="-0.04987">
        <ele>-20.80024</ele>
        <time>2017-10-15T08:12:49Z</time>
      </trkpt>
      <trkpt lat="44.62494" lon="-0.04975">
        <ele>-22.40024</ele>
        <time>2017-10-15T08:12:56Z</time>
      </trkpt>
      <trkpt lat="44.62494" lon="-0.04962">
        <ele>-21.70024</ele>
        <time>2017-10-15T08:13:05Z</time>
      </trkpt>
      <trkpt lat="44.62495" lon="-0.04951">
        <ele>-21.900186666667</ele>
        <time>2017-10-15T08:13:14Z</time>
      </trkpt>
      <trkpt lat="44.62494" lon="-0.04939">
        <ele>-11.70024</ele>
        <time>2017-10-15T08:13:37Z</time>
      </trkpt>
      <trkpt lat="44.62494" lon="-0.04928">
        <ele>-13.40024</ele>
        <time>2017-10-15T08:13:44Z</time>
      </trkpt>
      <trkpt lat="44.62495" lon="-0.04917">
        <ele>-14.200213333333</ele>
        <time>2017-10-15T08:13:50Z</time>
      </trkpt>
      <trkpt lat="44.62495" lon="-0.04906">
        <ele>-16.500193333333</ele>
        <time>2017-10-15T08:13:57Z</time>
      </trkpt>
      <trkpt lat="44.62497" lon="-0.04894">
        <ele>-19.000133333333</ele>
        <time>2017-10-15T08:14:05Z</time>
      </trkpt>
      <trkpt lat="44.62496" lon="-0.04882">
        <ele>-16.100153333333</ele>
        <time>2017-10-15T08:14:13Z</time>
      </trkpt>
      <trkpt lat="44.62497" lon="-0.04869">
        <ele>-17.40014</ele>
        <time>2017-10-15T08:14:21Z</time>
      </trkpt>
      <trkpt lat="44.62498" lon="-0.04857">
        <ele>-19.000066666667</ele>
        <time>2017-10-15T08:14:29Z</time>
      </trkpt>
      <trkpt lat="44.62498" lon="-0.04845">
        <ele>-20.300073333333</ele>
        <time>2017-10-15T08:14:37Z</time>
      </trkpt>
      <trkpt lat="44.62499" lon="-0.04835">
        <ele>-16.600026666667</ele>
        <time>2017-10-15T08:14:43Z</time>
      </trkpt>
      <trkpt lat="44.625" lon="-0.04823">
        <ele>-12.10002</ele>
        <time>2017-10-15T08:14:49Z</time>
      </trkpt>
      <trkpt lat="44.625" lon="-0.04811">
        <ele>-8</ele>
        <time>2017-10-15T08:14:57Z</time>
      </trkpt>
      <trkpt lat="44.62503" lon="-0.04801">
        <ele>-5.3998933333333</ele>
        <time>2017-10-15T08:15:05Z</time>
      </trkpt>
      <trkpt lat="44.62504" lon="-0.04788">
        <ele>-4.4998466666667</ele>
        <time>2017-10-15T08:15:14Z</time>
      </trkpt>
      <trkpt lat="44.62508" lon="-0.04779">
        <ele>-5.4996733333333</ele>
        <time>2017-10-15T08:15:23Z</time>
      </trkpt>
      <trkpt lat="44.6251" lon="-0.04767">
        <ele>-8.8995866666667</ele>
        <time>2017-10-15T08:15:31Z</time>
      </trkpt>
      <trkpt lat="44.62513" lon="-0.04756">
        <ele>-11.599473333333</ele>
        <time>2017-10-15T08:15:39Z</time>
      </trkpt>
      <trkpt lat="44.62514" lon="-0.04745">
        <ele>-14.599426666667</ele>
        <time>2017-10-15T08:15:47Z</time>
      </trkpt>
      <trkpt lat="44.62515" lon="-0.04733">
        <ele>-16.599386666667</ele>
        <time>2017-10-15T08:15:54Z</time>
      </trkpt>
      <trkpt lat="44.62517" lon="-0.04721">
        <ele>-16.399313333333</ele>
        <time>2017-10-15T08:16:01Z</time>
      </trkpt>
      <trkpt lat="44.62519" lon="-0.0471">
        <ele>-16.499246666667</ele>
        <time>2017-10-15T08:16:09Z</time>
      </trkpt>
      <trkpt lat="44.62519" lon="-0.04697">
        <ele>-16.299253333333</ele>
        <time>2017-10-15T08:16:14Z</time>
      </trkpt>
      <trkpt lat="44.62519" lon="-0.04686">
        <ele>-17.199246666667</ele>
        <time>2017-10-15T08:16:20Z</time>
      </trkpt>
      <trkpt lat="44.62521" lon="-0.04674">
        <ele>-13.699153333333</ele>
        <time>2017-10-15T08:16:34Z</time>
      </trkpt>
      <trkpt lat="44.62523" lon="-0.04663">
        <ele>-7.4990733333333</ele>
        <time>2017-10-15T08:16:40Z</time>
      </trkpt>
      <trkpt lat="44.62525" lon="-0.04651">
        <ele>-5.9989933333333</ele>
        <time>2017-10-15T08:16:47Z</time>
      </trkpt>
      <trkpt lat="44.62527" lon="-0.0464">
        <ele>-4.7989133333333</ele>
        <time>2017-10-15T08:16:53Z</time>
      </trkpt>
      <trkpt lat="44.6253" lon="-0.04629">
        <ele>-5.69882</ele>
        <time>2017-10-15T08:17:00Z</time>
      </trkpt>
      <trkpt lat="44.62532" lon="-0.04618">
        <ele>-7.6987333333333</ele>
        <time>2017-10-15T08:17:07Z</time>
      </trkpt>
      <trkpt lat="44.62532" lon="-0.04607">
        <ele>-5.4987266666666</ele>
        <time>2017-10-15T08:17:12Z</time>
      </trkpt>
      <trkpt lat="44.62534" lon="-0.04596">
        <ele>-4.7986333333333</ele>
        <time>2017-10-15T08:17:19Z</time>
      </trkpt>
      <trkpt lat="44.62538" lon="-0.04586">
        <ele>-4.4984933333333</ele>
        <time>2017-10-15T08:17:25Z</time>
      </trkpt>
      <trkpt lat="44.6254" lon="-0.04575">
        <ele>-4.9984</ele>
        <time>2017-10-15T08:17:33Z</time>
      </trkpt>
      <trkpt lat="44.62542" lon="-0.04563">
        <ele>-2.7983333333334</ele>
        <time>2017-10-15T08:18:11Z</time>
      </trkpt>
      <trkpt lat="44.62545" lon="-0.04553">
        <ele>-4.89822</ele>
        <time>2017-10-15T08:18:18Z</time>
      </trkpt>
      <trkpt lat="44.62548" lon="-0.04542">
        <ele>-5.2981</ele>
        <time>2017-10-15T08:18:24Z</time>
      </trkpt>
      <trkpt lat="44.62549" lon="-0.04531">
        <ele>-4.29806</ele>
        <time>2017-10-15T08:18:32Z</time>
      </trkpt>
      <trkpt lat="44.62546" lon="-0.0452">
        <ele>-1.8981733333333</ele>
        <time>2017-10-15T08:18:41Z</time>
      </trkpt>
      <trkpt lat="44.62546" lon="-0.04508">
        <ele>-3.2981733333333</ele>
        <time>2017-10-15T08:18:50Z</time>
      </trkpt>
      <trkpt lat="44.62548" lon="-0.04497">
        <ele>-4.2980866666667</ele>
        <time>2017-10-15T08:18:59Z</time>
      </trkpt>
      <trkpt lat="44.62551" lon="-0.04485">
        <ele>-3.6979666666667</ele>
        <time>2017-10-15T08:19:07Z</time>
      </trkpt>
      <trkpt lat="44.62552" lon="-0.04473">
        <ele>-5.8979133333333</ele>
        <time>2017-10-15T08:19:14Z</time>
      </trkpt>
      <trkpt lat="44.62553" lon="-0.04461">
        <ele>-6.5978866666667</ele>
        <time>2017-10-15T08:19:22Z</time>
      </trkpt>
      <trkpt lat="44.62555" lon="-0.0445">
        <ele>-7.39782</ele>
        <time>2017-10-15T08:19:30Z</time>
      </trkpt>
      <trkpt lat="44.62556" lon="-0.04438">
        <ele>-5.8977733333333</ele>
        <time>2017-10-15T08:19:38Z</time>
      </trkpt>
      <trkpt lat="44.62555" lon="-0.04426">
        <ele>-8.4977933333334</ele>
        <time>2017-10-15T08:19:46Z</time>
      </trkpt>
      <trkpt lat="44.62555" lon="-0.04414">
        <ele>-10.797806666667</ele>
        <time>2017-10-15T08:19:55Z</time>
      </trkpt>
      <trkpt lat="44.62562" lon="-0.04405">
        <ele>-7.79754</ele>
        <time>2017-10-15T08:20:04Z</time>
      </trkpt>
      <trkpt lat="44.62563" lon="-0.04393">
        <ele>-10.7975</ele>
        <time>2017-10-15T08:20:12Z</time>
      </trkpt>
      <trkpt lat="44.62565" lon="-0.04381">
        <ele>-11.097406666667</ele>
        <time>2017-10-15T08:20:22Z</time>
      </trkpt>
      <trkpt lat="44.62569" lon="-0.0437">
        <ele>-8.79726</ele>
        <time>2017-10-15T08:20:29Z</time>
      </trkpt>
      <trkpt lat="44.62572" lon="-0.04359">
        <ele>-4.9971133333333</ele>
        <time>2017-10-15T08:20:35Z</time>
      </trkpt>
      <trkpt lat="44.62574" lon="-0.04348">
        <ele>-7.29704</ele>
        <time>2017-10-15T08:20:41Z</time>
      </trkpt>
      <trkpt lat="44.62577" lon="-0.04337">
        <ele>-8.6969266666667</ele>
        <time>2017-10-15T08:20:48Z</time>
      </trkpt>
      <trkpt lat="44.62578" lon="-0.04324">
        <ele>-8.2969</ele>
        <time>2017-10-15T08:20:55Z</time>
      </trkpt>
      <trkpt lat="44.62579" lon="-0.04313">
        <ele>-9.7968333333333</ele>
        <time>2017-10-15T08:21:02Z</time>
      </trkpt>
      <trkpt lat="44.62584" lon="-0.04303">
        <ele>-9.9966533333333</ele>
        <time>2017-10-15T08:21:09Z</time>
      </trkpt>
      <trkpt lat="44.62585" lon="-0.04292">
        <ele>-10.396606666667</ele>
        <time>2017-10-15T08:21:16Z</time>
      </trkpt>
      <trkpt lat="44.62588" lon="-0.04281">
        <ele>-9.9965</ele>
        <time>2017-10-15T08:21:23Z</time>
      </trkpt>
      <trkpt lat="44.62589" lon="-0.04269">
        <ele>-8.79646</ele>
        <time>2017-10-15T08:21:30Z</time>
      </trkpt>
      <trkpt lat="44.6259" lon="-0.04257">
        <ele>-7.0964133333334</ele>
        <time>2017-10-15T08:21:39Z</time>
      </trkpt>
      <trkpt lat="44.62592" lon="-0.04245">
        <ele>-8.19632</ele>
        <time>2017-10-15T08:21:46Z</time>
      </trkpt>
      <trkpt lat="44.62595" lon="-0.04234">
        <ele>-8.19622</ele>
        <time>2017-10-15T08:21:53Z</time>
      </trkpt>
      <trkpt lat="44.62596" lon="-0.04223">
        <ele>-5.9961533333333</ele>
        <time>2017-10-15T08:21:59Z</time>
      </trkpt>
      <trkpt lat="44.62597" lon="-0.04212">
        <ele>-4.8961066666667</ele>
        <time>2017-10-15T08:22:06Z</time>
      </trkpt>
      <trkpt lat="44.626" lon="-0.042">
        <ele>-3.6959933333334</ele>
        <time>2017-10-15T08:22:16Z</time>
      </trkpt>
      <trkpt lat="44.62602" lon="-0.04188">
        <ele>-1.6959066666667</ele>
        <time>2017-10-15T08:22:26Z</time>
      </trkpt>
      <trkpt lat="44.62604" lon="-0.04177">
        <ele>-2.0958466666667</ele>
        <time>2017-10-15T08:22:36Z</time>
      </trkpt>
      <trkpt lat="44.62606" lon="-0.04166">
        <ele>-2.3957666666666</ele>
        <time>2017-10-15T08:22:44Z</time>
      </trkpt>
      <trkpt lat="44.62607" lon="-0.04153">
        <ele>-2.99572</ele>
        <time>2017-10-15T08:22:52Z</time>
      </trkpt>
      <trkpt lat="44.62607" lon="-0.04142">
        <ele>-5.9957333333333</ele>
        <time>2017-10-15T08:23:03Z</time>
      </trkpt>
      <trkpt lat="44.6261" lon="-0.0413">
        <ele>-10.395606666667</ele>
        <time>2017-10-15T08:23:11Z</time>
      </trkpt>
      <trkpt lat="44.62612" lon="-0.04118">
        <ele>-11.09554</ele>
        <time>2017-10-15T08:23:18Z</time>
      </trkpt>
      <trkpt lat="44.62608" lon="-0.04109">
        <ele>-9.3956933333333</ele>
        <time>2017-10-15T08:23:23Z</time>
      </trkpt>
      <trkpt lat="44.62601" lon="-0.04101">
        <ele>-5.2959533333333</ele>
        <time>2017-10-15T08:23:32Z</time>
      </trkpt>
      <trkpt lat="44.62609" lon="-0.04102">
        <ele>-14.095626666667</ele>
        <time>2017-10-15T08:24:43Z</time>
      </trkpt>
      <trkpt lat="44.62618" lon="-0.041">
        <ele>-16.19528</ele>
        <time>2017-10-15T08:24:52Z</time>
      </trkpt>
      <trkpt lat="44.62622" lon="-0.04089">
        <ele>-13.595126666667</ele>
        <time>2017-10-15T08:25:01Z</time>
      </trkpt>
      <trkpt lat="44.62624" lon="-0.04078">
        <ele>-8.5950466666666</ele>
        <time>2017-10-15T08:25:08Z</time>
      </trkpt>
      <trkpt lat="44.62627" lon="-0.04067">
        <ele>-7.3949133333334</ele>
        <time>2017-10-15T08:25:17Z</time>
      </trkpt>
      <trkpt lat="44.62628" lon="-0.04056">
        <ele>-2.2948933333333</ele>
        <time>2017-10-15T08:25:24Z</time>
      </trkpt>
      <trkpt lat="44.62629" lon="-0.04048">
        <ele>2.00514</ele>
        <time>2017-10-15T08:25:32Z</time>
      </trkpt>
      <trkpt lat="44.62634" lon="-0.04038">
        <ele>-1.2946533333333</ele>
        <time>2017-10-15T08:25:37Z</time>
      </trkpt>
      <trkpt lat="44.6264" lon="-0.0403">
        <ele>-3.99442</ele>
        <time>2017-10-15T08:25:44Z</time>
      </trkpt>
      <trkpt lat="44.62648" lon="-0.04028">
        <ele>-6.3940866666666</ele>
        <time>2017-10-15T08:25:51Z</time>
      </trkpt>
      <trkpt lat="44.62656" lon="-0.04024">
        <ele>-5.3937733333333</ele>
        <time>2017-10-15T08:25:59Z</time>
      </trkpt>
      <trkpt lat="44.62664" lon="-0.04025">
        <ele>-6.5934533333333</ele>
        <time>2017-10-15T08:26:06Z</time>
      </trkpt>
      <trkpt lat="44.6267" lon="-0.04032">
        <ele>-14.9932</ele>
        <time>2017-10-15T08:26:12Z</time>
      </trkpt>
      <trkpt lat="44.62678" lon="-0.04038">
        <ele>-23.1929</ele>
        <time>2017-10-15T08:26:18Z</time>
      </trkpt>
      <trkpt lat="44.62686" lon="-0.04041">
        <ele>-26.992573333333</ele>
        <time>2017-10-15T08:26:23Z</time>
      </trkpt>
      <trkpt lat="44.62694" lon="-0.04044">
        <ele>-25.592233333333</ele>
        <time>2017-10-15T08:26:31Z</time>
      </trkpt>
      <trkpt lat="44.62703" lon="-0.04047">
        <ele>-28.5919</ele>
        <time>2017-10-15T08:26:37Z</time>
      </trkpt>
      <trkpt lat="44.62711" lon="-0.04048">
        <ele>-33.091546666667</ele>
        <time>2017-10-15T08:26:46Z</time>
      </trkpt>
      <trkpt lat="44.6272" lon="-0.04049">
        <ele>-33.491213333333</ele>
        <time>2017-10-15T08:26:53Z</time>
      </trkpt>
      <trkpt lat="44.62728" lon="-0.04049">
        <ele>-29.79088</ele>
        <time>2017-10-15T08:26:58Z</time>
      </trkpt>
      <trkpt lat="44.62736" lon="-0.04049">
        <ele>-23.490566666667</ele>
        <time>2017-10-15T08:27:03Z</time>
      </trkpt>
      <trkpt lat="44.62744" lon="-0.04045">
        <ele>-16.690233333333</ele>
        <time>2017-10-15T08:27:09Z</time>
      </trkpt>
      <trkpt lat="44.62753" lon="-0.04045">
        <ele>-15.689893333333</ele>
        <time>2017-10-15T08:27:14Z</time>
      </trkpt>
      <trkpt lat="44.62761" lon="-0.04048">
        <ele>-12.28956</ele>
        <time>2017-10-15T08:27:20Z</time>
      </trkpt>
      <trkpt lat="44.62769" lon="-0.04047">
        <ele>-10.38924</ele>
        <time>2017-10-15T08:27:27Z</time>
      </trkpt>
      <trkpt lat="44.62777" lon="-0.04048">
        <ele>-10.18894</ele>
        <time>2017-10-15T08:27:34Z</time>
      </trkpt>
      <trkpt lat="44.62784" lon="-0.04052">
        <ele>-12.288626666667</ele>
        <time>2017-10-15T08:27:41Z</time>
      </trkpt>
      <trkpt lat="44.62793" lon="-0.04054">
        <ele>-13.18828</ele>
        <time>2017-10-15T08:27:49Z</time>
      </trkpt>
      <trkpt lat="44.62801" lon="-0.04054">
        <ele>-10.587953333333</ele>
        <time>2017-10-15T08:27:56Z</time>
      </trkpt>
      <trkpt lat="44.6281" lon="-0.04053">
        <ele>-7.78762</ele>
        <time>2017-10-15T08:28:02Z</time>
      </trkpt>
      <trkpt lat="44.62818" lon="-0.04053">
        <ele>-4.88728</ele>
        <time>2017-10-15T08:28:11Z</time>
      </trkpt>
      <trkpt lat="44.62827" lon="-0.04052">
        <ele>-13.286926666667</ele>
        <time>2017-10-15T08:28:16Z</time>
      </trkpt>
      <trkpt lat="44.62835" lon="-0.04056">
        <ele>-13.286593333333</ele>
        <time>2017-10-15T08:28:26Z</time>
      </trkpt>
      <trkpt lat="44.62844" lon="-0.04054">
        <ele>-14.88626</ele>
        <time>2017-10-15T08:28:32Z</time>
      </trkpt>
      <trkpt lat="44.62852" lon="-0.04053">
        <ele>-15.585926666667</ele>
        <time>2017-10-15T08:28:37Z</time>
      </trkpt>
      <trkpt lat="44.6286" lon="-0.04052">
        <ele>-11.185593333333</ele>
        <time>2017-10-15T08:28:43Z</time>
      </trkpt>
      <trkpt lat="44.62858" lon="-0.0404">
        <ele>-10.58568</ele>
        <time>2017-10-15T08:29:17Z</time>
      </trkpt>
      <trkpt lat="44.62867" lon="-0.04043">
        <ele>-15.88534</ele>
        <time>2017-10-15T08:29:52Z</time>
      </trkpt>
      <trkpt lat="44.62871" lon="-0.04034">
        <ele>-16.785173333333</ele>
        <time>2017-10-15T08:30:08Z</time>
      </trkpt>
      <trkpt lat="44.62878" lon="-0.04027">
        <ele>-14.884866666667</ele>
        <time>2017-10-15T08:30:14Z</time>
      </trkpt>
      <trkpt lat="44.62885" lon="-0.0402">
        <ele>-10.084606666667</ele>
        <time>2017-10-15T08:30:24Z</time>
      </trkpt>
      <trkpt lat="44.62884" lon="-0.04008">
        <ele>-10.184633333333</ele>
        <time>2017-10-15T08:30:29Z</time>
      </trkpt>
      <trkpt lat="44.6288" lon="-0.03995">
        <ele>-14.184813333333</ele>
        <time>2017-10-15T08:30:34Z</time>
      </trkpt>
      <trkpt lat="44.62879" lon="-0.03984">
        <ele>-15.084826666667</ele>
        <time>2017-10-15T08:30:38Z</time>
      </trkpt>
      <trkpt lat="44.62881" lon="-0.03975">
        <ele>-15.384746666667</ele>
        <time>2017-10-15T08:30:42Z</time>
      </trkpt>
      <trkpt lat="44.62885" lon="-0.03965">
        <ele>-9.9846</ele>
        <time>2017-10-15T08:30:46Z</time>
      </trkpt>
      <trkpt lat="44.62892" lon="-0.03958">
        <ele>-10.584306666667</ele>
        <time>2017-10-15T08:31:20Z</time>
      </trkpt>
      <trkpt lat="44.62897" lon="-0.03947">
        <ele>-19.484126666667</ele>
        <time>2017-10-15T08:31:58Z</time>
      </trkpt>
      <trkpt lat="44.62904" lon="-0.03941">
        <ele>-19.78386</ele>
        <time>2017-10-15T08:32:54Z</time>
      </trkpt>
      <trkpt lat="44.62912" lon="-0.03937">
        <ele>-16.583526666667</ele>
        <time>2017-10-15T08:33:08Z</time>
      </trkpt>
      <trkpt lat="44.62917" lon="-0.03927">
        <ele>-19.783313333333</ele>
        <time>2017-10-15T08:33:39Z</time>
      </trkpt>
      <trkpt lat="44.62925" lon="-0.03922">
        <ele>-16.782986666667</ele>
        <time>2017-10-15T08:34:26Z</time>
      </trkpt>
      <trkpt lat="44.62934" lon="-0.03924">
        <ele>-26.982653333333</ele>
        <time>2017-10-15T08:34:33Z</time>
      </trkpt>
      <trkpt lat="44.62942" lon="-0.03921">
        <ele>-39.682306666667</ele>
        <time>2017-10-15T08:34:44Z</time>
      </trkpt>
      <trkpt lat="44.62942" lon="-0.0391">
        <ele>-40.282326666667</ele>
        <time>2017-10-15T08:34:48Z</time>
      </trkpt>
      <trkpt lat="44.62941" lon="-0.03898">
        <ele>-41.182346666667</ele>
        <time>2017-10-15T08:34:55Z</time>
      </trkpt>
      <trkpt lat="44.62942" lon="-0.03886">
        <ele>-37.182333333333</ele>
        <time>2017-10-15T08:35:01Z</time>
      </trkpt>
      <trkpt lat="44.62946" lon="-0.03874">
        <ele>-29.58218</ele>
        <time>2017-10-15T08:35:06Z</time>
      </trkpt>
      <trkpt lat="44.62951" lon="-0.03867">
        <ele>-24.481946666667</ele>
        <time>2017-10-15T08:35:17Z</time>
      </trkpt>
      <trkpt lat="44.62957" lon="-0.0386">
        <ele>-20.681706666667</ele>
        <time>2017-10-15T08:35:23Z</time>
      </trkpt>
      <trkpt lat="44.62965" lon="-0.03855">
        <ele>-17.381386666667</ele>
        <time>2017-10-15T08:35:29Z</time>
      </trkpt>
      <trkpt lat="44.6297" lon="-0.03844">
        <ele>-12.181193333333</ele>
        <time>2017-10-15T08:35:36Z</time>
      </trkpt>
      <trkpt lat="44.62975" lon="-0.03835">
        <ele>-11.681</ele>
        <time>2017-10-15T08:35:43Z</time>
      </trkpt>
      <trkpt lat="44.62979" lon="-0.03824">
        <ele>-4.2808333333333</ele>
        <time>2017-10-15T08:35:56Z</time>
      </trkpt>
      <trkpt lat="44.6298" lon="-0.03812">
        <ele>-8.8808066666666</ele>
        <time>2017-10-15T08:36:01Z</time>
      </trkpt>
      <trkpt lat="44.62986" lon="-0.03803">
        <ele>-11.780573333333</ele>
        <time>2017-10-15T08:36:10Z</time>
      </trkpt>
      <trkpt lat="44.62989" lon="-0.03791">
        <ele>-18.980453333333</ele>
        <time>2017-10-15T08:36:22Z</time>
      </trkpt>
      <trkpt lat="44.62991" lon="-0.0378">
        <ele>-12.280373333333</ele>
        <time>2017-10-15T08:36:35Z</time>
      </trkpt>
      <trkpt lat="44.62993" lon="-0.03791">
        <ele>-13.08028</ele>
        <time>2017-10-15T08:36:44Z</time>
      </trkpt>
      <trkpt lat="44.6299" lon="-0.03799">
        <ele>-16.880386666667</ele>
        <time>2017-10-15T08:36:53Z</time>
      </trkpt>
      <trkpt lat="44.6299" lon="-0.0381">
        <ele>-22.7804</ele>
        <time>2017-10-15T08:37:39Z</time>
      </trkpt>
      <trkpt lat="44.62991" lon="-0.038">
        <ele>-26.580353333333</ele>
        <time>2017-10-15T08:38:03Z</time>
      </trkpt>
      <trkpt lat="44.63" lon="-0.03797">
        <ele>-23.28002</ele>
        <time>2017-10-15T08:38:27Z</time>
      </trkpt>
      <trkpt lat="44.63005" lon="-0.03807">
        <ele>-24.479813333333</ele>
        <time>2017-10-15T08:38:44Z</time>
      </trkpt>
      <trkpt lat="44.62999" lon="-0.03816">
        <ele>-22.88004</ele>
        <time>2017-10-15T08:38:57Z</time>
      </trkpt>
      <trkpt lat="44.62999" lon="-0.03818">
        <ele>-24.080033333333</ele>
        <time>2017-10-15T08:39:14Z</time>
      </trkpt>
      <trkpt lat="44.62993" lon="-0.03796">
        <ele>-22.5803</ele>
        <time>2017-10-15T08:39:18Z</time>
      </trkpt>
      <trkpt lat="44.62985" lon="-0.03789">
        <ele>-12.680593333333</ele>
        <time>2017-10-15T08:39:32Z</time>
      </trkpt>
      <trkpt lat="44.62985" lon="-0.03784">
        <ele>-14.38062</ele>
        <time>2017-10-15T08:40:05Z</time>
      </trkpt>
      <trkpt lat="44.62979" lon="-0.03774">
        <ele>-17.080846666667</ele>
        <time>2017-10-15T08:40:09Z</time>
      </trkpt>
      <trkpt lat="44.62984" lon="-0.03767">
        <ele>-16.180626666667</ele>
        <time>2017-10-15T08:41:49Z</time>
      </trkpt>
      <trkpt lat="44.62982" lon="-0.03758">
        <ele>-28.680726666667</ele>
        <time>2017-10-15T08:41:55Z</time>
      </trkpt>
      <trkpt lat="44.62981" lon="-0.03753">
        <ele>-31.680753333333</ele>
        <time>2017-10-15T08:42:48Z</time>
      </trkpt>
      <trkpt lat="44.62985" lon="-0.0377">
        <ele>-27.78062</ele>
        <time>2017-10-15T08:42:53Z</time>
      </trkpt>
      <trkpt lat="44.62985" lon="-0.03762">
        <ele>-26.680586666667</ele>
        <time>2017-10-15T08:44:23Z</time>
      </trkpt>
      <trkpt lat="44.62996" lon="-0.03763">
        <ele>-46.880166666667</ele>
        <time>2017-10-15T08:44:27Z</time>
      </trkpt>
      <trkpt lat="44.62996" lon="-0.03751">
        <ele>-8.4801666666667</ele>
        <time>2017-10-15T08:47:02Z</time>
      </trkpt>
      <trkpt lat="44.62999" lon="-0.0374">
        <ele>-12.680053333333</ele>
        <time>2017-10-15T08:47:11Z</time>
      </trkpt>
      <trkpt lat="44.63" lon="-0.03728">
        <ele>-20.980006666667</ele>
        <time>2017-10-15T08:47:21Z</time>
      </trkpt>
      <trkpt lat="44.63001" lon="-0.03716">
        <ele>-26.479946666667</ele>
        <time>2017-10-15T08:47:28Z</time>
      </trkpt>
      <trkpt lat="44.63003" lon="-0.03705">
        <ele>-30.679866666667</ele>
        <time>2017-10-15T08:47:35Z</time>
      </trkpt>
      <trkpt lat="44.63004" lon="-0.03694">
        <ele>-33.379833333333</ele>
        <time>2017-10-15T08:47:41Z</time>
      </trkpt>
      <trkpt lat="44.63" lon="-0.03684">
        <ele>-35.98</ele>
        <time>2017-10-15T08:47:46Z</time>
      </trkpt>
      <trkpt lat="44.63001" lon="-0.03673">
        <ele>-37.37998</ele>
        <time>2017-10-15T08:47:51Z</time>
      </trkpt>
      <trkpt lat="44.63008" lon="-0.03669">
        <ele>-35.67968</ele>
        <time>2017-10-15T08:47:57Z</time>
      </trkpt>
      <trkpt lat="44.63016" lon="-0.0367">
        <ele>-32.679353333333</ele>
        <time>2017-10-15T08:48:01Z</time>
      </trkpt>
      <trkpt lat="44.63024" lon="-0.03668">
        <ele>-31.579053333333</ele>
        <time>2017-10-15T08:48:05Z</time>
      </trkpt>
      <trkpt lat="44.63031" lon="-0.03662">
        <ele>-28.978753333333</ele>
        <time>2017-10-15T08:48:12Z</time>
      </trkpt>
      <trkpt lat="44.6304" lon="-0.03659">
        <ele>-26.87842</ele>
        <time>2017-10-15T08:48:20Z</time>
      </trkpt>
      <trkpt lat="44.63048" lon="-0.03662">
        <ele>-23.278073333333</ele>
        <time>2017-10-15T08:48:28Z</time>
      </trkpt>
      <trkpt lat="44.63057" lon="-0.03663">
        <ele>-21.97774</ele>
        <time>2017-10-15T08:48:35Z</time>
      </trkpt>
      <trkpt lat="44.63069" lon="-0.03649">
        <ele>-35.17726</ele>
        <time>2017-10-15T08:48:39Z</time>
      </trkpt>
      <trkpt lat="44.63077" lon="-0.0365">
        <ele>-35.776926666667</ele>
        <time>2017-10-15T08:48:49Z</time>
      </trkpt>
      <trkpt lat="44.63085" lon="-0.03649">
        <ele>-37.1766</ele>
        <time>2017-10-15T08:48:53Z</time>
      </trkpt>
      <trkpt lat="44.63094" lon="-0.03646">
        <ele>-44.57626</ele>
        <time>2017-10-15T08:49:01Z</time>
      </trkpt>
      <trkpt lat="44.63102" lon="-0.03642">
        <ele>-45.875933333333</ele>
        <time>2017-10-15T08:49:14Z</time>
      </trkpt>
      <trkpt lat="44.63108" lon="-0.03632">
        <ele>-43.2757</ele>
        <time>2017-10-15T08:49:23Z</time>
      </trkpt>
      <trkpt lat="44.63108" lon="-0.03621">
        <ele>-58.6757</ele>
        <time>2017-10-15T08:49:52Z</time>
      </trkpt>
      <trkpt lat="44.63112" lon="-0.03612">
        <ele>-55.975506666667</ele>
        <time>2017-10-15T08:49:57Z</time>
      </trkpt>
      <trkpt lat="44.63119" lon="-0.03604">
        <ele>-52.875226666667</ele>
        <time>2017-10-15T08:50:03Z</time>
      </trkpt>
      <trkpt lat="44.63124" lon="-0.03594">
        <ele>-50.37504</ele>
        <time>2017-10-15T08:50:14Z</time>
      </trkpt>
      <trkpt lat="44.63127" lon="-0.03582">
        <ele>-51.97494</ele>
        <time>2017-10-15T08:50:21Z</time>
      </trkpt>
      <trkpt lat="44.63135" lon="-0.03576">
        <ele>-56.87462</ele>
        <time>2017-10-15T08:50:25Z</time>
      </trkpt>
      <trkpt lat="44.6314" lon="-0.03567">
        <ele>-61.874413333333</ele>
        <time>2017-10-15T08:50:31Z</time>
      </trkpt>
      <trkpt lat="44.63145" lon="-0.03559">
        <ele>-60.274186666667</ele>
        <time>2017-10-15T08:50:36Z</time>
      </trkpt>
      <trkpt lat="44.63152" lon="-0.03552">
        <ele>-53.47394</ele>
        <time>2017-10-15T08:50:41Z</time>
      </trkpt>
      <trkpt lat="44.63156" lon="-0.03542">
        <ele>-51.173746666667</ele>
        <time>2017-10-15T08:50:47Z</time>
      </trkpt>
      <trkpt lat="44.63156" lon="-0.03529">
        <ele>-50.57378</ele>
        <time>2017-10-15T08:50:54Z</time>
      </trkpt>
      <trkpt lat="44.63152" lon="-0.03519">
        <ele>-51.37392</ele>
        <time>2017-10-15T08:51:02Z</time>
      </trkpt>
      <trkpt lat="44.63151" lon="-0.03507">
        <ele>-52.273966666667</ele>
        <time>2017-10-15T08:51:06Z</time>
      </trkpt>
      <trkpt lat="44.63151" lon="-0.03495">
        <ele>-48.77398</ele>
        <time>2017-10-15T08:51:12Z</time>
      </trkpt>
      <trkpt lat="44.63157" lon="-0.03485">
        <ele>-43.673733333333</ele>
        <time>2017-10-15T08:51:19Z</time>
      </trkpt>
      <trkpt lat="44.63163" lon="-0.03478">
        <ele>-49.173466666667</ele>
        <time>2017-10-15T08:51:28Z</time>
      </trkpt>
      <trkpt lat="44.63163" lon="-0.03467">
        <ele>-50.073466666667</ele>
        <time>2017-10-15T08:51:34Z</time>
      </trkpt>
      <trkpt lat="44.63167" lon="-0.03457">
        <ele>-48.77334</ele>
        <time>2017-10-15T08:51:39Z</time>
      </trkpt>
      <trkpt lat="44.63168" lon="-0.03445">
        <ele>-43.373266666667</ele>
        <time>2017-10-15T08:51:47Z</time>
      </trkpt>
      <trkpt lat="44.63171" lon="-0.03433">
        <ele>-38.173173333333</ele>
        <time>2017-10-15T08:51:56Z</time>
      </trkpt>
      <trkpt lat="44.63172" lon="-0.03422">
        <ele>-36.373133333333</ele>
        <time>2017-10-15T08:52:03Z</time>
      </trkpt>
      <trkpt lat="44.63172" lon="-0.03411">
        <ele>-32.07314</ele>
        <time>2017-10-15T08:52:10Z</time>
      </trkpt>
      <trkpt lat="44.63171" lon="-0.03399">
        <ele>-32.673166666667</ele>
        <time>2017-10-15T08:52:17Z</time>
      </trkpt>
      <trkpt lat="44.63176" lon="-0.03389">
        <ele>-32.57298</ele>
        <time>2017-10-15T08:52:22Z</time>
      </trkpt>
      <trkpt lat="44.63172" lon="-0.03378">
        <ele>-34.67312</ele>
        <time>2017-10-15T08:52:27Z</time>
      </trkpt>
      <trkpt lat="44.63166" lon="-0.03368">
        <ele>-36.973346666667</ele>
        <time>2017-10-15T08:52:32Z</time>
      </trkpt>
      <trkpt lat="44.63167" lon="-0.03356">
        <ele>-37.573326666667</ele>
        <time>2017-10-15T08:52:39Z</time>
      </trkpt>
      <trkpt lat="44.63174" lon="-0.03351">
        <ele>-40.273026666667</ele>
        <time>2017-10-15T08:52:48Z</time>
      </trkpt>
      <trkpt lat="44.63182" lon="-0.03347">
        <ele>-37.172713333333</ele>
        <time>2017-10-15T08:52:56Z</time>
      </trkpt>
      <trkpt lat="44.63188" lon="-0.03344">
        <ele>-43.572473333333</ele>
        <time>2017-10-15T08:54:42Z</time>
      </trkpt>
      <trkpt lat="44.63197" lon="-0.03351">
        <ele>-48.272133333333</ele>
        <time>2017-10-15T08:54:47Z</time>
      </trkpt>
      <trkpt lat="44.63188" lon="-0.03349">
        <ele>-46.872473333333</ele>
        <time>2017-10-15T08:54:57Z</time>
      </trkpt>
      <trkpt lat="44.6318" lon="-0.03349">
        <ele>-43.172806666667</ele>
        <time>2017-10-15T08:55:02Z</time>
      </trkpt>
      <trkpt lat="44.63175" lon="-0.0334">
        <ele>-38.073013333333</ele>
        <time>2017-10-15T08:55:11Z</time>
      </trkpt>
      <trkpt lat="44.63168" lon="-0.03332">
        <ele>-28.07328</ele>
        <time>2017-10-15T08:55:22Z</time>
      </trkpt>
      <trkpt lat="44.6316" lon="-0.03328">
        <ele>-27.173606666667</ele>
        <time>2017-10-15T08:55:29Z</time>
      </trkpt>
      <trkpt lat="44.63161" lon="-0.03317">
        <ele>-33.073573333333</ele>
        <time>2017-10-15T08:55:52Z</time>
      </trkpt>
      <trkpt lat="44.63163" lon="-0.03305">
        <ele>-34.9735</ele>
        <time>2017-10-15T08:56:22Z</time>
      </trkpt>
      <trkpt lat="44.63165" lon="-0.03293">
        <ele>-35.473406666667</ele>
        <time>2017-10-15T08:56:27Z</time>
      </trkpt>
      <trkpt lat="44.63166" lon="-0.03281">
        <ele>-37.673373333333</ele>
        <time>2017-10-15T08:56:35Z</time>
      </trkpt>
      <trkpt lat="44.63166" lon="-0.03268">
        <ele>-47.37336</ele>
        <time>2017-10-15T08:56:40Z</time>
      </trkpt>
      <trkpt lat="44.63161" lon="-0.03257">
        <ele>-49.37356</ele>
        <time>2017-10-15T08:56:46Z</time>
      </trkpt>
      <trkpt lat="44.63163" lon="-0.03245">
        <ele>-49.573493333333</ele>
        <time>2017-10-15T08:56:54Z</time>
      </trkpt>
      <trkpt lat="44.63168" lon="-0.03236">
        <ele>-56.073266666667</ele>
        <time>2017-10-15T08:57:47Z</time>
      </trkpt>
      <trkpt lat="44.63169" lon="-0.03224">
        <ele>-51.573233333333</ele>
        <time>2017-10-15T08:57:53Z</time>
      </trkpt>
      <trkpt lat="44.63166" lon="-0.03212">
        <ele>-46.373346666667</ele>
        <time>2017-10-15T08:57:58Z</time>
      </trkpt>
      <trkpt lat="44.63163" lon="-0.03202">
        <ele>-42.273466666667</ele>
        <time>2017-10-15T08:58:03Z</time>
      </trkpt>
      <trkpt lat="44.63161" lon="-0.03191">
        <ele>-37.073566666667</ele>
        <time>2017-10-15T08:58:09Z</time>
      </trkpt>
      <trkpt lat="44.63158" lon="-0.03179">
        <ele>-34.073673333333</ele>
        <time>2017-10-15T08:58:27Z</time>
      </trkpt>
      <trkpt lat="44.63158" lon="-0.03168">
        <ele>-33.273686666667</ele>
        <time>2017-10-15T08:58:35Z</time>
      </trkpt>
      <trkpt lat="44.63157" lon="-0.03157">
        <ele>-34.973733333333</ele>
        <time>2017-10-15T08:58:41Z</time>
      </trkpt>
      <trkpt lat="44.63157" lon="-0.03144">
        <ele>-37.073733333333</ele>
        <time>2017-10-15T08:58:46Z</time>
      </trkpt>
      <trkpt lat="44.6316" lon="-0.03133">
        <ele>-37.27362</ele>
        <time>2017-10-15T08:58:52Z</time>
      </trkpt>
      <trkpt lat="44.6316" lon="-0.0312">
        <ele>-36.4736</ele>
        <time>2017-10-15T08:58:59Z</time>
      </trkpt>
      <trkpt lat="44.6316" lon="-0.03109">
        <ele>-36.673586666667</ele>
        <time>2017-10-15T08:59:05Z</time>
      </trkpt>
      <trkpt lat="44.63161" lon="-0.03098">
        <ele>-38.273573333333</ele>
        <time>2017-10-15T08:59:10Z</time>
      </trkpt>
      <trkpt lat="44.6316" lon="-0.03086">
        <ele>-37.173586666667</ele>
        <time>2017-10-15T08:59:15Z</time>
      </trkpt>
      <trkpt lat="44.63159" lon="-0.03074">
        <ele>-34.17366</ele>
        <time>2017-10-15T08:59:22Z</time>
      </trkpt>
      <trkpt lat="44.63157" lon="-0.03063">
        <ele>-33.173733333333</ele>
        <time>2017-10-15T08:59:30Z</time>
      </trkpt>
      <trkpt lat="44.63153" lon="-0.03053">
        <ele>-31.673893333333</ele>
        <time>2017-10-15T08:59:37Z</time>
      </trkpt>
      <trkpt lat="44.63148" lon="-0.03043">
        <ele>-29.374086666667</ele>
        <time>2017-10-15T08:59:43Z</time>
      </trkpt>
      <trkpt lat="44.63142" lon="-0.03034">
        <ele>-25.47432</ele>
        <time>2017-10-15T08:59:50Z</time>
      </trkpt>
      <trkpt lat="44.63142" lon="-0.03022">
        <ele>-26.87434</ele>
        <time>2017-10-15T08:59:55Z</time>
      </trkpt>
      <trkpt lat="44.63138" lon="-0.03013">
        <ele>-26.674486666667</ele>
        <time>2017-10-15T09:00:01Z</time>
      </trkpt>
      <trkpt lat="44.63132" lon="-0.03004">
        <ele>-25.174733333333</ele>
        <time>2017-10-15T09:00:08Z</time>
      </trkpt>
      <trkpt lat="44.63124" lon="-0.02999">
        <ele>-21.875033333333</ele>
        <time>2017-10-15T09:00:14Z</time>
      </trkpt>
      <trkpt lat="44.63118" lon="-0.02992">
        <ele>-21.1753</ele>
        <time>2017-10-15T09:00:21Z</time>
      </trkpt>
      <trkpt lat="44.6311" lon="-0.0299">
        <ele>-23.07562</ele>
        <time>2017-10-15T09:00:29Z</time>
      </trkpt>
      <trkpt lat="44.63103" lon="-0.02983">
        <ele>-22.0759</ele>
        <time>2017-10-15T09:00:36Z</time>
      </trkpt>
      <trkpt lat="44.631" lon="-0.02973">
        <ele>-20.976013333333</ele>
        <time>2017-10-15T09:00:43Z</time>
      </trkpt>
      <trkpt lat="44.63096" lon="-0.02963">
        <ele>-19.376153333333</ele>
        <time>2017-10-15T09:00:50Z</time>
      </trkpt>
      <trkpt lat="44.63092" lon="-0.02952">
        <ele>-19.27634</ele>
        <time>2017-10-15T09:01:01Z</time>
      </trkpt>
      <trkpt lat="44.63085" lon="-0.02943">
        <ele>-19.576593333333</ele>
        <time>2017-10-15T09:01:05Z</time>
      </trkpt>
      <trkpt lat="44.63076" lon="-0.02938">
        <ele>-19.77698</ele>
        <time>2017-10-15T09:01:10Z</time>
      </trkpt>
      <trkpt lat="44.6307" lon="-0.02931">
        <ele>-16.0772</ele>
        <time>2017-10-15T09:01:15Z</time>
      </trkpt>
      <trkpt lat="44.63065" lon="-0.02921">
        <ele>-12.477386666667</ele>
        <time>2017-10-15T09:01:20Z</time>
      </trkpt>
      <trkpt lat="44.63062" lon="-0.02911">
        <ele>-12.577526666667</ele>
        <time>2017-10-15T09:01:27Z</time>
      </trkpt>
      <trkpt lat="44.63054" lon="-0.02909">
        <ele>-12.077833333333</ele>
        <time>2017-10-15T09:01:33Z</time>
      </trkpt>
      <trkpt lat="44.63046" lon="-0.02907">
        <ele>-12.578173333333</ele>
        <time>2017-10-15T09:01:40Z</time>
      </trkpt>
      <trkpt lat="44.63039" lon="-0.02902">
        <ele>-12.478453333333</ele>
        <time>2017-10-15T09:01:45Z</time>
      </trkpt>
      <trkpt lat="44.63033" lon="-0.02895">
        <ele>-12.67868</ele>
        <time>2017-10-15T09:01:50Z</time>
      </trkpt>
      <trkpt lat="44.63026" lon="-0.02889">
        <ele>-13.57896</ele>
        <time>2017-10-15T09:01:56Z</time>
      </trkpt>
      <trkpt lat="44.63017" lon="-0.02887">
        <ele>-13.879306666667</ele>
        <time>2017-10-15T09:02:02Z</time>
      </trkpt>
      <trkpt lat="44.6301" lon="-0.02884">
        <ele>-12.27962</ele>
        <time>2017-10-15T09:02:08Z</time>
      </trkpt>
      <trkpt lat="44.63002" lon="-0.02883">
        <ele>-10.079926666667</ele>
        <time>2017-10-15T09:02:16Z</time>
      </trkpt>
      <trkpt lat="44.62995" lon="-0.02879">
        <ele>-10.18022</ele>
        <time>2017-10-15T09:02:23Z</time>
      </trkpt>
      <trkpt lat="44.62988" lon="-0.02872">
        <ele>-12.580473333333</ele>
        <time>2017-10-15T09:02:30Z</time>
      </trkpt>
      <trkpt lat="44.62982" lon="-0.02863">
        <ele>-19.080706666667</ele>
        <time>2017-10-15T09:02:42Z</time>
      </trkpt>
      <trkpt lat="44.62976" lon="-0.02859">
        <ele>-19.280973333333</ele>
        <time>2017-10-15T09:02:50Z</time>
      </trkpt>
      <trkpt lat="44.62968" lon="-0.02859">
        <ele>-17.581293333333</ele>
        <time>2017-10-15T09:02:55Z</time>
      </trkpt>
      <trkpt lat="44.6296" lon="-0.02856">
        <ele>-17.1816</ele>
        <time>2017-10-15T09:03:01Z</time>
      </trkpt>
      <trkpt lat="44.62952" lon="-0.02855">
        <ele>-11.78194</ele>
        <time>2017-10-15T09:03:09Z</time>
      </trkpt>
      <trkpt lat="44.62944" lon="-0.02855">
        <ele>-6.7822533333333</ele>
        <time>2017-10-15T09:03:13Z</time>
      </trkpt>
      <trkpt lat="44.62937" lon="-0.0285">
        <ele>-5.18254</ele>
        <time>2017-10-15T09:03:22Z</time>
      </trkpt>
      <trkpt lat="44.62928" lon="-0.0285">
        <ele>-4.6828866666667</ele>
        <time>2017-10-15T09:03:29Z</time>
      </trkpt>
      <trkpt lat="44.6292" lon="-0.02846">
        <ele>-6.4832</ele>
        <time>2017-10-15T09:03:37Z</time>
      </trkpt>
      <trkpt lat="44.62912" lon="-0.02845">
        <ele>-4.88352</ele>
        <time>2017-10-15T09:03:45Z</time>
      </trkpt>
      <trkpt lat="44.62904" lon="-0.0284">
        <ele>-2.0838266666667</ele>
        <time>2017-10-15T09:03:52Z</time>
      </trkpt>
      <trkpt lat="44.62897" lon="-0.02836">
        <ele>-3.1841333333333</ele>
        <time>2017-10-15T09:04:00Z</time>
      </trkpt>
      <trkpt lat="44.62888" lon="-0.02834">
        <ele>-1.8844666666667</ele>
        <time>2017-10-15T09:04:06Z</time>
      </trkpt>
      <trkpt lat="44.6288" lon="-0.02832">
        <ele>-0.88479333333333</ele>
        <time>2017-10-15T09:04:11Z</time>
      </trkpt>
      <trkpt lat="44.62872" lon="-0.02829">
        <ele>-1.58512</ele>
        <time>2017-10-15T09:04:18Z</time>
      </trkpt>
      <trkpt lat="44.62867" lon="-0.02821">
        <ele>-3.08532</ele>
        <time>2017-10-15T09:04:26Z</time>
      </trkpt>
      <trkpt lat="44.62863" lon="-0.0281">
        <ele>-7.1854933333333</ele>
        <time>2017-10-15T09:04:35Z</time>
      </trkpt>
      <trkpt lat="44.62861" lon="-0.02798">
        <ele>-14.18556</ele>
        <time>2017-10-15T09:04:43Z</time>
      </trkpt>
      <trkpt lat="44.62854" lon="-0.02792">
        <ele>-20.78586</ele>
        <time>2017-10-15T09:04:51Z</time>
      </trkpt>
      <trkpt lat="44.62846" lon="-0.02789">
        <ele>-26.486146666667</ele>
        <time>2017-10-15T09:04:56Z</time>
      </trkpt>
      <trkpt lat="44.62839" lon="-0.02783">
        <ele>-33.186426666667</ele>
        <time>2017-10-15T09:05:02Z</time>
      </trkpt>
      <trkpt lat="44.62833" lon="-0.02775">
        <ele>-43.486686666667</ele>
        <time>2017-10-15T09:05:11Z</time>
      </trkpt>
      <trkpt lat="44.62825" lon="-0.0277">
        <ele>-50.587013333333</ele>
        <time>2017-10-15T09:05:18Z</time>
      </trkpt>
      <trkpt lat="44.62816" lon="-0.0277">
        <ele>-57.987366666667</ele>
        <time>2017-10-15T09:05:24Z</time>
      </trkpt>
      <trkpt lat="44.62808" lon="-0.02765">
        <ele>-64.087673333333</ele>
        <time>2017-10-15T09:05:31Z</time>
      </trkpt>
      <trkpt lat="44.62802" lon="-0.02757">
        <ele>-74.887906666667</ele>
        <time>2017-10-15T09:05:38Z</time>
      </trkpt>
      <trkpt lat="44.62795" lon="-0.02755">
        <ele>-81.18822</ele>
        <time>2017-10-15T09:05:44Z</time>
      </trkpt>
      <trkpt lat="44.62787" lon="-0.02759">
        <ele>-76.588526666667</ele>
        <time>2017-10-15T09:05:49Z</time>
      </trkpt>
      <trkpt lat="44.6278" lon="-0.02764">
        <ele>-69.788786666667</ele>
        <time>2017-10-15T09:05:53Z</time>
      </trkpt>
      <trkpt lat="44.62773" lon="-0.0277">
        <ele>-64.889073333333</ele>
        <time>2017-10-15T09:05:57Z</time>
      </trkpt>
      <trkpt lat="44.62767" lon="-0.02777">
        <ele>-57.489333333333</ele>
        <time>2017-10-15T09:06:01Z</time>
      </trkpt>
      <trkpt lat="44.62761" lon="-0.02785">
        <ele>-48.789546666667</ele>
        <time>2017-10-15T09:06:06Z</time>
      </trkpt>
      <trkpt lat="44.62754" lon="-0.02787">
        <ele>-44.38986</ele>
        <time>2017-10-15T09:06:12Z</time>
      </trkpt>
      <trkpt lat="44.62746" lon="-0.02788">
        <ele>-42.190146666667</ele>
        <time>2017-10-15T09:06:19Z</time>
      </trkpt>
      <trkpt lat="44.62739" lon="-0.02795">
        <ele>-35.59046</ele>
        <time>2017-10-15T09:06:23Z</time>
      </trkpt>
      <trkpt lat="44.62732" lon="-0.028">
        <ele>-29.79074</ele>
        <time>2017-10-15T09:06:29Z</time>
      </trkpt>
      <trkpt lat="44.62723" lon="-0.02799">
        <ele>-28.691073333333</ele>
        <time>2017-10-15T09:06:35Z</time>
      </trkpt>
      <trkpt lat="44.62715" lon="-0.02801">
        <ele>-27.191413333333</ele>
        <time>2017-10-15T09:06:41Z</time>
      </trkpt>
      <trkpt lat="44.62708" lon="-0.02807">
        <ele>-23.89168</ele>
        <time>2017-10-15T09:06:48Z</time>
      </trkpt>
      <trkpt lat="44.627" lon="-0.02809">
        <ele>-22.892006666667</ele>
        <time>2017-10-15T09:06:54Z</time>
      </trkpt>
      <trkpt lat="44.62691" lon="-0.02814">
        <ele>-21.09236</ele>
        <time>2017-10-15T09:06:59Z</time>
      </trkpt>
      <trkpt lat="44.62683" lon="-0.02816">
        <ele>-19.492693333333</ele>
        <time>2017-10-15T09:07:04Z</time>
      </trkpt>
      <trkpt lat="44.62676" lon="-0.02813">
        <ele>-18.892966666667</ele>
        <time>2017-10-15T09:07:10Z</time>
      </trkpt>
      <trkpt lat="44.62667" lon="-0.02814">
        <ele>-17.69332</ele>
        <time>2017-10-15T09:07:15Z</time>
      </trkpt>
      <trkpt lat="44.62659" lon="-0.02819">
        <ele>-19.793633333333</ele>
        <time>2017-10-15T09:07:22Z</time>
      </trkpt>
      <trkpt lat="44.62651" lon="-0.02815">
        <ele>-23.093966666667</ele>
        <time>2017-10-15T09:07:31Z</time>
      </trkpt>
      <trkpt lat="44.62645" lon="-0.02806">
        <ele>-26.594186666667</ele>
        <time>2017-10-15T09:07:42Z</time>
      </trkpt>
      <trkpt lat="44.62639" lon="-0.02815">
        <ele>-33.694426666667</ele>
        <time>2017-10-15T09:07:50Z</time>
      </trkpt>
      <trkpt lat="44.62633" lon="-0.02822">
        <ele>-46.1947</ele>
        <time>2017-10-15T09:08:02Z</time>
      </trkpt>
      <trkpt lat="44.62624" lon="-0.0282">
        <ele>-47.695046666667</ele>
        <time>2017-10-15T09:08:08Z</time>
      </trkpt>
      <trkpt lat="44.62615" lon="-0.02814">
        <ele>-47.4954</ele>
        <time>2017-10-15T09:08:13Z</time>
      </trkpt>
      <trkpt lat="44.62607" lon="-0.02812">
        <ele>-41.295726666667</ele>
        <time>2017-10-15T09:08:18Z</time>
      </trkpt>
      <trkpt lat="44.62598" lon="-0.02814">
        <ele>-35.29608</ele>
        <time>2017-10-15T09:08:24Z</time>
      </trkpt>
      <trkpt lat="44.62591" lon="-0.02814">
        <ele>-33.696366666667</ele>
        <time>2017-10-15T09:08:29Z</time>
      </trkpt>
      <trkpt lat="44.62582" lon="-0.02816">
        <ele>-28.696713333333</ele>
        <time>2017-10-15T09:08:35Z</time>
      </trkpt>
      <trkpt lat="44.62574" lon="-0.02816">
        <ele>-24.097046666667</ele>
        <time>2017-10-15T09:08:40Z</time>
      </trkpt>
      <trkpt lat="44.62565" lon="-0.02819">
        <ele>-18.297393333333</ele>
        <time>2017-10-15T09:08:45Z</time>
      </trkpt>
      <trkpt lat="44.62558" lon="-0.02822">
        <ele>-11.397693333333</ele>
        <time>2017-10-15T09:08:50Z</time>
      </trkpt>
      <trkpt lat="44.62549" lon="-0.02825">
        <ele>-6.59804</ele>
        <time>2017-10-15T09:09:03Z</time>
      </trkpt>
      <trkpt lat="44.62543" lon="-0.02832">
        <ele>-1.8982866666666</ele>
        <time>2017-10-15T09:09:09Z</time>
      </trkpt>
      <trkpt lat="44.62537" lon="-0.02841">
        <ele>0.10147333333334</ele>
        <time>2017-10-15T09:09:14Z</time>
      </trkpt>
      <trkpt lat="44.62529" lon="-0.02843">
        <ele>2.90114</ele>
        <time>2017-10-15T09:09:21Z</time>
      </trkpt>
      <trkpt lat="44.6252" lon="-0.02846">
        <ele>1.6007933333333</ele>
        <time>2017-10-15T09:09:26Z</time>
      </trkpt>
      <trkpt lat="44.62512" lon="-0.02849">
        <ele>-4.7995333333333</ele>
        <time>2017-10-15T09:09:33Z</time>
      </trkpt>
      <trkpt lat="44.62505" lon="-0.02852">
        <ele>-12.79982</ele>
        <time>2017-10-15T09:09:41Z</time>
      </trkpt>
      <trkpt lat="44.62495" lon="-0.02851">
        <ele>-9.9002</ele>
        <time>2017-10-15T09:09:45Z</time>
      </trkpt>
      <trkpt lat="44.62488" lon="-0.02845">
        <ele>-4.60048</ele>
        <time>2017-10-15T09:09:50Z</time>
      </trkpt>
      <trkpt lat="44.6248" lon="-0.02843">
        <ele>0.79920000000003</ele>
        <time>2017-10-15T09:09:55Z</time>
      </trkpt>
      <trkpt lat="44.62471" lon="-0.02841">
        <ele>7.1988533333333</ele>
        <time>2017-10-15T09:10:02Z</time>
      </trkpt>
      <trkpt lat="44.62464" lon="-0.0284">
        <ele>7.29854</ele>
        <time>2017-10-15T09:10:08Z</time>
      </trkpt>
      <trkpt lat="44.62455" lon="-0.02839">
        <ele>9.2982066666667</ele>
        <time>2017-10-15T09:10:13Z</time>
      </trkpt>
      <trkpt lat="44.62447" lon="-0.02841">
        <ele>13.197893333333</ele>
        <time>2017-10-15T09:10:20Z</time>
      </trkpt>
      <trkpt lat="44.6244" lon="-0.02842">
        <ele>17.397593333333</ele>
        <time>2017-10-15T09:10:27Z</time>
      </trkpt>
      <trkpt lat="44.62433" lon="-0.02846">
        <ele>13.1973</ele>
        <time>2017-10-15T09:10:38Z</time>
      </trkpt>
      <trkpt lat="44.62424" lon="-0.0285">
        <ele>4.99696</ele>
        <time>2017-10-15T09:10:55Z</time>
      </trkpt>
      <trkpt lat="44.62416" lon="-0.02849">
        <ele>6.29664</ele>
        <time>2017-10-15T09:11:05Z</time>
      </trkpt>
      <trkpt lat="44.62407" lon="-0.02848">
        <ele>0.89629333333334</ele>
        <time>2017-10-15T09:11:14Z</time>
      </trkpt>
      <trkpt lat="44.62401" lon="-0.02849">
        <ele>0.19605333333335</ele>
        <time>2017-10-15T09:11:21Z</time>
      </trkpt>
      <trkpt lat="44.62383" lon="-0.02859">
        <ele>13.59532</ele>
        <time>2017-10-15T09:11:26Z</time>
      </trkpt>
      <trkpt lat="44.6238" lon="-0.02863">
        <ele>16.9952</ele>
        <time>2017-10-15T09:12:18Z</time>
      </trkpt>
      <trkpt lat="44.6239" lon="-0.02871">
        <ele>18.495586666667</ele>
        <time>2017-10-15T09:12:23Z</time>
      </trkpt>
      <trkpt lat="44.62381" lon="-0.02873">
        <ele>14.695253333333</ele>
        <time>2017-10-15T09:13:22Z</time>
      </trkpt>
      <trkpt lat="44.62373" lon="-0.02868">
        <ele>11.09492</ele>
        <time>2017-10-15T09:13:40Z</time>
      </trkpt>
      <trkpt lat="44.62365" lon="-0.02868">
        <ele>11.5946</ele>
        <time>2017-10-15T09:13:52Z</time>
      </trkpt>
      <trkpt lat="44.62357" lon="-0.02871">
        <ele>11.994273333333</ele>
        <time>2017-10-15T09:13:59Z</time>
      </trkpt>
      <trkpt lat="44.62349" lon="-0.02872">
        <ele>2.9939666666666</ele>
        <time>2017-10-15T09:14:13Z</time>
      </trkpt>
      <trkpt lat="44.62341" lon="-0.02876">
        <ele>4.09364</ele>
        <time>2017-10-15T09:14:22Z</time>
      </trkpt>
      <trkpt lat="44.62332" lon="-0.02875">
        <ele>9.7932933333334</ele>
        <time>2017-10-15T09:14:26Z</time>
      </trkpt>
      <trkpt lat="44.62327" lon="-0.02872">
        <ele>13.493093333333</ele>
        <time>2017-10-15T09:15:16Z</time>
      </trkpt>
      <trkpt lat="44.62318" lon="-0.02874">
        <ele>11.4927</ele>
        <time>2017-10-15T09:15:21Z</time>
      </trkpt>
      <trkpt lat="44.62326" lon="-0.02872">
        <ele>9.3930333333333</ele>
        <time>2017-10-15T09:15:40Z</time>
      </trkpt>
      <trkpt lat="44.62335" lon="-0.02871">
        <ele>8.5933866666667</ele>
        <time>2017-10-15T09:15:47Z</time>
      </trkpt>
      <trkpt lat="44.62342" lon="-0.02864">
        <ele>9.5936733333333</ele>
        <time>2017-10-15T09:16:08Z</time>
      </trkpt>
      <trkpt lat="44.62349" lon="-0.02865">
        <ele>10.093953333333</ele>
        <time>2017-10-15T09:16:14Z</time>
      </trkpt>
      <trkpt lat="44.62357" lon="-0.02868">
        <ele>6.2942733333333</ele>
        <time>2017-10-15T09:16:20Z</time>
      </trkpt>
      <trkpt lat="44.62365" lon="-0.02873">
        <ele>3.89458</ele>
        <time>2017-10-15T09:16:27Z</time>
      </trkpt>
      <trkpt lat="44.62369" lon="-0.02882">
        <ele>2.6947733333333</ele>
        <time>2017-10-15T09:16:34Z</time>
      </trkpt>
      <trkpt lat="44.62376" lon="-0.0289">
        <ele>3.6950266666667</ele>
        <time>2017-10-15T09:16:41Z</time>
      </trkpt>
      <trkpt lat="44.62379" lon="-0.02902">
        <ele>3.99514</ele>
        <time>2017-10-15T09:16:50Z</time>
      </trkpt>
      <trkpt lat="44.62373" lon="-0.02911">
        <ele>3.6949</ele>
        <time>2017-10-15T09:16:57Z</time>
      </trkpt>
      <trkpt lat="44.62375" lon="-0.02922">
        <ele>4.4950066666667</ele>
        <time>2017-10-15T09:17:08Z</time>
      </trkpt>
      <trkpt lat="44.62376" lon="-0.02934">
        <ele>4.89504</ele>
        <time>2017-10-15T09:17:17Z</time>
      </trkpt>
      <trkpt lat="44.62376" lon="-0.02946">
        <ele>4.5950466666666</ele>
        <time>2017-10-15T09:17:26Z</time>
      </trkpt>
      <trkpt lat="44.62379" lon="-0.02957">
        <ele>5.19514</ele>
        <time>2017-10-15T09:17:34Z</time>
      </trkpt>
      <trkpt lat="44.62379" lon="-0.02968">
        <ele>4.0951666666666</ele>
        <time>2017-10-15T09:17:41Z</time>
      </trkpt>
      <trkpt lat="44.62376" lon="-0.02979">
        <ele>4.09504</ele>
        <time>2017-10-15T09:17:48Z</time>
      </trkpt>
      <trkpt lat="44.62371" lon="-0.02988">
        <ele>5.99482</ele>
        <time>2017-10-15T09:17:54Z</time>
      </trkpt>
      <trkpt lat="44.62368" lon="-0.02999">
        <ele>7.9947333333334</ele>
        <time>2017-10-15T09:18:02Z</time>
      </trkpt>
      <trkpt lat="44.62368" lon="-0.03011">
        <ele>5.3947066666667</ele>
        <time>2017-10-15T09:18:09Z</time>
      </trkpt>
      <trkpt lat="44.62367" lon="-0.03023">
        <ele>6.1946933333333</ele>
        <time>2017-10-15T09:18:17Z</time>
      </trkpt>
      <trkpt lat="44.62366" lon="-0.03036">
        <ele>9.99462</ele>
        <time>2017-10-15T09:18:30Z</time>
      </trkpt>
      <trkpt lat="44.62362" lon="-0.03046">
        <ele>10.694493333333</ele>
        <time>2017-10-15T09:18:37Z</time>
      </trkpt>
      <trkpt lat="44.62356" lon="-0.03055">
        <ele>12.194253333333</ele>
        <time>2017-10-15T09:18:45Z</time>
      </trkpt>
      <trkpt lat="44.62355" lon="-0.03065">
        <ele>14.494213333333</ele>
        <time>2017-10-15T09:18:51Z</time>
      </trkpt>
      <trkpt lat="44.62354" lon="-0.03078">
        <ele>13.994173333333</ele>
        <time>2017-10-15T09:18:57Z</time>
      </trkpt>
      <trkpt lat="44.62356" lon="-0.03089">
        <ele>8.7942466666667</ele>
        <time>2017-10-15T09:19:06Z</time>
      </trkpt>
      <trkpt lat="44.62357" lon="-0.031">
        <ele>5.7942866666667</ele>
        <time>2017-10-15T09:19:13Z</time>
      </trkpt>
      <trkpt lat="44.62355" lon="-0.03112">
        <ele>7.6942066666667</ele>
        <time>2017-10-15T09:19:19Z</time>
      </trkpt>
      <trkpt lat="44.62348" lon="-0.03117">
        <ele>8.4939133333333</ele>
        <time>2017-10-15T09:19:23Z</time>
      </trkpt>
      <trkpt lat="44.62347" lon="-0.03129">
        <ele>9.6938666666667</ele>
        <time>2017-10-15T09:19:30Z</time>
      </trkpt>
      <trkpt lat="44.62346" lon="-0.03142">
        <ele>7.5938466666667</ele>
        <time>2017-10-15T09:19:42Z</time>
      </trkpt>
      <trkpt lat="44.62344" lon="-0.03153">
        <ele>6.7937466666667</ele>
        <time>2017-10-15T09:19:49Z</time>
      </trkpt>
      <trkpt lat="44.62343" lon="-0.03164">
        <ele>8.9937066666667</ele>
        <time>2017-10-15T09:19:56Z</time>
      </trkpt>
      <trkpt lat="44.62338" lon="-0.03175">
        <ele>9.3935266666667</ele>
        <time>2017-10-15T09:20:03Z</time>
      </trkpt>
      <trkpt lat="44.62335" lon="-0.03185">
        <ele>8.29338</ele>
        <time>2017-10-15T09:20:09Z</time>
      </trkpt>
      <trkpt lat="44.62333" lon="-0.03197">
        <ele>3.4933066666667</ele>
        <time>2017-10-15T09:20:18Z</time>
      </trkpt>
      <trkpt lat="44.62325" lon="-0.03201">
        <ele>5.4929933333333</ele>
        <time>2017-10-15T09:20:23Z</time>
      </trkpt>
      <trkpt lat="44.62326" lon="-0.03214">
        <ele>6.8930466666667</ele>
        <time>2017-10-15T09:20:31Z</time>
      </trkpt>
      <trkpt lat="44.62328" lon="-0.03225">
        <ele>8.49312</ele>
        <time>2017-10-15T09:20:37Z</time>
      </trkpt>
      <trkpt lat="44.62328" lon="-0.03236">
        <ele>8.6931066666667</ele>
        <time>2017-10-15T09:20:44Z</time>
      </trkpt>
      <trkpt lat="44.62334" lon="-0.03242">
        <ele>7.2933466666667</ele>
        <time>2017-10-15T09:20:48Z</time>
      </trkpt>
      <trkpt lat="44.62338" lon="-0.03248">
        <ele>-0.40647333333333</ele>
        <time>2017-10-15T09:23:30Z</time>
      </trkpt>
      <trkpt lat="44.62339" lon="-0.03262">
        <ele>-2.1064333333333</ele>
        <time>2017-10-15T09:23:35Z</time>
      </trkpt>
      <trkpt lat="44.6234" lon="-0.03274">
        <ele>-1.2064066666667</ele>
        <time>2017-10-15T09:23:45Z</time>
      </trkpt>
      <trkpt lat="44.62344" lon="-0.03285">
        <ele>-0.10625333333332</ele>
        <time>2017-10-15T09:23:54Z</time>
      </trkpt>
      <trkpt lat="44.62347" lon="-0.03297">
        <ele>0.69386666666669</ele>
        <time>2017-10-15T09:24:06Z</time>
      </trkpt>
      <trkpt lat="44.62349" lon="-0.03308">
        <ele>0.29395333333333</ele>
        <time>2017-10-15T09:24:14Z</time>
      </trkpt>
      <trkpt lat="44.62351" lon="-0.0332">
        <ele>-0.10598000000002</ele>
        <time>2017-10-15T09:24:21Z</time>
      </trkpt>
      <trkpt lat="44.62352" lon="-0.03332">
        <ele>1.0940933333333</ele>
        <time>2017-10-15T09:24:34Z</time>
      </trkpt>
      <trkpt lat="44.62353" lon="-0.03343">
        <ele>1.3941066666667</ele>
        <time>2017-10-15T09:24:42Z</time>
      </trkpt>
      <trkpt lat="44.62354" lon="-0.03355">
        <ele>0.6941666666667</ele>
        <time>2017-10-15T09:24:48Z</time>
      </trkpt>
      <trkpt lat="44.62352" lon="-0.03367">
        <ele>1.9940666666667</ele>
        <time>2017-10-15T09:24:55Z</time>
      </trkpt>
      <trkpt lat="44.62351" lon="-0.03378">
        <ele>-1.10598</ele>
        <time>2017-10-15T09:25:05Z</time>
      </trkpt>
      <trkpt lat="44.62353" lon="-0.0339">
        <ele>-1.2058866666667</ele>
        <time>2017-10-15T09:25:11Z</time>
      </trkpt>
      <trkpt lat="44.62353" lon="-0.03401">
        <ele>-3.0058666666667</ele>
        <time>2017-10-15T09:25:18Z</time>
      </trkpt>
      <trkpt lat="44.62355" lon="-0.03413">
        <ele>-3.3058066666666</ele>
        <time>2017-10-15T09:25:24Z</time>
      </trkpt>
      <trkpt lat="44.62351" lon="-0.03423">
        <ele>-2.8059733333333</ele>
        <time>2017-10-15T09:25:30Z</time>
      </trkpt>
      <trkpt lat="44.62349" lon="-0.03434">
        <ele>-2.4060466666667</ele>
        <time>2017-10-15T09:25:37Z</time>
      </trkpt>
      <trkpt lat="44.62347" lon="-0.03445">
        <ele>-3.70614</ele>
        <time>2017-10-15T09:25:47Z</time>
      </trkpt>
      <trkpt lat="44.62346" lon="-0.03457">
        <ele>-1.0061666666666</ele>
        <time>2017-10-15T09:25:55Z</time>
      </trkpt>
      <trkpt lat="44.62345" lon="-0.03468">
        <ele>3.2937866666666</ele>
        <time>2017-10-15T09:26:00Z</time>
      </trkpt>
      <trkpt lat="44.62344" lon="-0.03479">
        <ele>6.6937533333333</ele>
        <time>2017-10-15T09:26:07Z</time>
      </trkpt>
      <trkpt lat="44.62351" lon="-0.03487">
        <ele>-3.00598</ele>
        <time>2017-10-15T09:26:15Z</time>
      </trkpt>
      <trkpt lat="44.62352" lon="-0.03499">
        <ele>-5.80594</ele>
        <time>2017-10-15T09:26:22Z</time>
      </trkpt>
      <trkpt lat="44.62354" lon="-0.03511">
        <ele>-7.2058533333334</ele>
        <time>2017-10-15T09:26:28Z</time>
      </trkpt>
      <trkpt lat="44.62354" lon="-0.03523">
        <ele>-9.7058533333334</ele>
        <time>2017-10-15T09:26:33Z</time>
      </trkpt>
      <trkpt lat="44.62356" lon="-0.03534">
        <ele>-11.70576</ele>
        <time>2017-10-15T09:26:38Z</time>
      </trkpt>
      <trkpt lat="44.62358" lon="-0.03545">
        <ele>-8.7056733333334</ele>
        <time>2017-10-15T09:26:44Z</time>
      </trkpt>
      <trkpt lat="44.62362" lon="-0.03555">
        <ele>-6.9055266666667</ele>
        <time>2017-10-15T09:26:49Z</time>
      </trkpt>
      <trkpt lat="44.62365" lon="-0.03565">
        <ele>-4.7053933333333</ele>
        <time>2017-10-15T09:26:55Z</time>
      </trkpt>
      <trkpt lat="44.62366" lon="-0.03577">
        <ele>-2.8053533333333</ele>
        <time>2017-10-15T09:27:02Z</time>
      </trkpt>
      <trkpt lat="44.62364" lon="-0.03587">
        <ele>-3.00544</ele>
        <time>2017-10-15T09:27:09Z</time>
      </trkpt>
      <trkpt lat="44.62365" lon="-0.03599">
        <ele>-4.3054133333333</ele>
        <time>2017-10-15T09:27:15Z</time>
      </trkpt>
      <trkpt lat="44.6237" lon="-0.03608">
        <ele>-4.10522</ele>
        <time>2017-10-15T09:27:22Z</time>
      </trkpt>
      <trkpt lat="44.62378" lon="-0.0361">
        <ele>-1.7048933333333</ele>
        <time>2017-10-15T09:27:27Z</time>
      </trkpt>
      <trkpt lat="44.62387" lon="-0.03612">
        <ele>-2.00454</ele>
        <time>2017-10-15T09:27:34Z</time>
      </trkpt>
      <trkpt lat="44.62394" lon="-0.03612">
        <ele>-1.4042333333334</ele>
        <time>2017-10-15T09:27:46Z</time>
      </trkpt>
      <trkpt lat="44.62403" lon="-0.03614">
        <ele>-3.40388</ele>
        <time>2017-10-15T09:27:53Z</time>
      </trkpt>
      <trkpt lat="44.62412" lon="-0.03614">
        <ele>-7.4035333333333</ele>
        <time>2017-10-15T09:28:02Z</time>
      </trkpt>
      <trkpt lat="44.6242" lon="-0.03613">
        <ele>-6.9031933333333</ele>
        <time>2017-10-15T09:28:09Z</time>
      </trkpt>
      <trkpt lat="44.62429" lon="-0.03614">
        <ele>-3.3028466666667</ele>
        <time>2017-10-15T09:28:14Z</time>
      </trkpt>
      <trkpt lat="44.62437" lon="-0.03614">
        <ele>-3.7025266666667</ele>
        <time>2017-10-15T09:28:21Z</time>
      </trkpt>
      <trkpt lat="44.62445" lon="-0.03614">
        <ele>-6.5022133333333</ele>
        <time>2017-10-15T09:28:30Z</time>
      </trkpt>
      <trkpt lat="44.62453" lon="-0.03613">
        <ele>-7.1019</ele>
        <time>2017-10-15T09:28:38Z</time>
      </trkpt>
      <trkpt lat="44.6246" lon="-0.03612">
        <ele>-10.701593333333</ele>
        <time>2017-10-15T09:28:45Z</time>
      </trkpt>
      <trkpt lat="44.62468" lon="-0.03616">
        <ele>-13.001266666667</ele>
        <time>2017-10-15T09:28:50Z</time>
      </trkpt>
      <trkpt lat="44.62477" lon="-0.03615">
        <ele>-12.500913333333</ele>
        <time>2017-10-15T09:28:58Z</time>
      </trkpt>
      <trkpt lat="44.62485" lon="-0.03615">
        <ele>-13.3006</ele>
        <time>2017-10-15T09:29:04Z</time>
      </trkpt>
      <trkpt lat="44.62493" lon="-0.03624">
        <ele>-17.3003</ele>
        <time>2017-10-15T09:29:08Z</time>
      </trkpt>
      <trkpt lat="44.625" lon="-0.03619">
        <ele>-18.999993333333</ele>
        <time>2017-10-15T09:29:20Z</time>
      </trkpt>
      <trkpt lat="44.62508" lon="-0.03616">
        <ele>-18.79968</ele>
        <time>2017-10-15T09:29:28Z</time>
      </trkpt>
      <trkpt lat="44.62515" lon="-0.03618">
        <ele>-18.699393333333</ele>
        <time>2017-10-15T09:29:33Z</time>
      </trkpt>
      <trkpt lat="44.62525" lon="-0.0362">
        <ele>-21.999013333333</ele>
        <time>2017-10-15T09:29:37Z</time>
      </trkpt>
      <trkpt lat="44.62533" lon="-0.03618">
        <ele>-24.998666666667</ele>
        <time>2017-10-15T09:29:45Z</time>
      </trkpt>
      <trkpt lat="44.62542" lon="-0.03616">
        <ele>-23.398333333333</ele>
        <time>2017-10-15T09:29:51Z</time>
      </trkpt>
      <trkpt lat="44.6255" lon="-0.03615">
        <ele>-20.797986666667</ele>
        <time>2017-10-15T09:29:57Z</time>
      </trkpt>
      <trkpt lat="44.62558" lon="-0.0362">
        <ele>-22.297686666667</ele>
        <time>2017-10-15T09:30:02Z</time>
      </trkpt>
      <trkpt lat="44.62566" lon="-0.0362">
        <ele>-21.09736</ele>
        <time>2017-10-15T09:30:12Z</time>
      </trkpt>
      <trkpt lat="44.62574" lon="-0.03619">
        <ele>-17.99704</ele>
        <time>2017-10-15T09:30:20Z</time>
      </trkpt>
      <trkpt lat="44.62582" lon="-0.03617">
        <ele>-15.49672</ele>
        <time>2017-10-15T09:30:31Z</time>
      </trkpt>
      <trkpt lat="44.6259" lon="-0.03613">
        <ele>-12.196406666667</ele>
        <time>2017-10-15T09:30:42Z</time>
      </trkpt>
      <trkpt lat="44.62598" lon="-0.03616">
        <ele>-13.99608</ele>
        <time>2017-10-15T09:30:49Z</time>
      </trkpt>
      <trkpt lat="44.62605" lon="-0.0362">
        <ele>-14.295793333333</ele>
        <time>2017-10-15T09:30:54Z</time>
      </trkpt>
      <trkpt lat="44.62613" lon="-0.03625">
        <ele>-17.495473333333</ele>
        <time>2017-10-15T09:31:02Z</time>
      </trkpt>
      <trkpt lat="44.62621" lon="-0.03628">
        <ele>-17.69518</ele>
        <time>2017-10-15T09:31:07Z</time>
      </trkpt>
      <trkpt lat="44.62629" lon="-0.0363">
        <ele>-16.894846666667</ele>
        <time>2017-10-15T09:31:13Z</time>
      </trkpt>
      <trkpt lat="44.62636" lon="-0.03632">
        <ele>-16.094546666667</ele>
        <time>2017-10-15T09:31:18Z</time>
      </trkpt>
      <trkpt lat="44.62647" lon="-0.0363">
        <ele>-16.89414</ele>
        <time>2017-10-15T09:31:23Z</time>
      </trkpt>
      <trkpt lat="44.62655" lon="-0.03632">
        <ele>-24.093786666667</ele>
        <time>2017-10-15T09:31:34Z</time>
      </trkpt>
      <trkpt lat="44.62663" lon="-0.03635">
        <ele>-27.993486666667</ele>
        <time>2017-10-15T09:31:44Z</time>
      </trkpt>
      <trkpt lat="44.62671" lon="-0.03632">
        <ele>-28.393146666667</ele>
        <time>2017-10-15T09:31:51Z</time>
      </trkpt>
      <trkpt lat="44.6268" lon="-0.03634">
        <ele>-24.392806666667</ele>
        <time>2017-10-15T09:32:07Z</time>
      </trkpt>
      <trkpt lat="44.62688" lon="-0.0364">
        <ele>-17.992493333333</ele>
        <time>2017-10-15T09:32:16Z</time>
      </trkpt>
      <trkpt lat="44.62692" lon="-0.0365">
        <ele>-15.192326666667</ele>
        <time>2017-10-15T09:32:24Z</time>
      </trkpt>
      <trkpt lat="44.6269" lon="-0.03661">
        <ele>-14.892406666667</ele>
        <time>2017-10-15T09:32:31Z</time>
      </trkpt>
      <trkpt lat="44.62688" lon="-0.03673">
        <ele>-14.992473333333</ele>
        <time>2017-10-15T09:32:38Z</time>
      </trkpt>
      <trkpt lat="44.62691" lon="-0.03683">
        <ele>-16.192373333333</ele>
        <time>2017-10-15T09:32:45Z</time>
      </trkpt>
      <trkpt lat="44.62694" lon="-0.03694">
        <ele>-15.292233333333</ele>
        <time>2017-10-15T09:32:53Z</time>
      </trkpt>
      <trkpt lat="44.62688" lon="-0.03701">
        <ele>-17.792486666667</ele>
        <time>2017-10-15T09:33:04Z</time>
      </trkpt>
      <trkpt lat="44.62691" lon="-0.03713">
        <ele>-16.792353333333</ele>
        <time>2017-10-15T09:33:16Z</time>
      </trkpt>
      <trkpt lat="44.62694" lon="-0.03721">
        <ele>-17.192226666667</ele>
        <time>2017-10-15T09:33:23Z</time>
      </trkpt>
      <trkpt lat="44.627" lon="-0.0373">
        <ele>-18.292006666667</ele>
        <time>2017-10-15T09:33:30Z</time>
      </trkpt>
      <trkpt lat="44.62702" lon="-0.03742">
        <ele>-17.191906666667</ele>
        <time>2017-10-15T09:33:39Z</time>
      </trkpt>
      <trkpt lat="44.62701" lon="-0.03749">
        <ele>-16.691973333333</ele>
        <time>2017-10-15T09:33:46Z</time>
      </trkpt>
      <trkpt lat="44.62693" lon="-0.03754">
        <ele>-16.992286666667</ele>
        <time>2017-10-15T09:33:51Z</time>
      </trkpt>
      <trkpt lat="44.62691" lon="-0.03764">
        <ele>-17.192353333333</ele>
        <time>2017-10-15T09:33:55Z</time>
      </trkpt>
      <trkpt lat="44.6269" lon="-0.03775">
        <ele>-17.392393333333</ele>
        <time>2017-10-15T09:33:59Z</time>
      </trkpt>
      <trkpt lat="44.62692" lon="-0.03787">
        <ele>-17.492326666667</ele>
        <time>2017-10-15T09:34:06Z</time>
      </trkpt>
      <trkpt lat="44.62693" lon="-0.03799">
        <ele>-18.592266666667</ele>
        <time>2017-10-15T09:34:14Z</time>
      </trkpt>
      <trkpt lat="44.62684" lon="-0.03803">
        <ele>-20.49266</ele>
        <time>2017-10-15T09:34:19Z</time>
      </trkpt>
      <trkpt lat="44.62689" lon="-0.03812">
        <ele>-21.89246</ele>
        <time>2017-10-15T09:34:25Z</time>
      </trkpt>
      <trkpt lat="44.62696" lon="-0.03818">
        <ele>-21.89216</ele>
        <time>2017-10-15T09:34:29Z</time>
      </trkpt>
      <trkpt lat="44.62702" lon="-0.03827">
        <ele>-21.79192</ele>
        <time>2017-10-15T09:34:35Z</time>
      </trkpt>
      <trkpt lat="44.62703" lon="-0.03838">
        <ele>-19.891873333333</ele>
        <time>2017-10-15T09:34:42Z</time>
      </trkpt>
      <trkpt lat="44.62697" lon="-0.03852">
        <ele>-18.992106666667</ele>
        <time>2017-10-15T09:34:47Z</time>
      </trkpt>
      <trkpt lat="44.62692" lon="-0.0386">
        <ele>-15.09232</ele>
        <time>2017-10-15T09:34:54Z</time>
      </trkpt>
      <trkpt lat="44.62689" lon="-0.03872">
        <ele>-12.792433333333</ele>
        <time>2017-10-15T09:35:03Z</time>
      </trkpt>
      <trkpt lat="44.62687" lon="-0.03884">
        <ele>-12.392506666667</ele>
        <time>2017-10-15T09:35:10Z</time>
      </trkpt>
      <trkpt lat="44.62682" lon="-0.03893">
        <ele>-12.192713333333</ele>
        <time>2017-10-15T09:35:18Z</time>
      </trkpt>
      <trkpt lat="44.62678" lon="-0.03904">
        <ele>-18.592866666667</ele>
        <time>2017-10-15T09:35:32Z</time>
      </trkpt>
      <trkpt lat="44.62673" lon="-0.03913">
        <ele>-20.2931</ele>
        <time>2017-10-15T09:35:39Z</time>
      </trkpt>
      <trkpt lat="44.6267" lon="-0.03923">
        <ele>-21.3932</ele>
        <time>2017-10-15T09:35:46Z</time>
      </trkpt>
      <trkpt lat="44.62671" lon="-0.03935">
        <ele>-24.79318</ele>
        <time>2017-10-15T09:35:53Z</time>
      </trkpt>
      <trkpt lat="44.6267" lon="-0.03946">
        <ele>-31.9932</ele>
        <time>2017-10-15T09:36:14Z</time>
      </trkpt>
      <trkpt lat="44.62668" lon="-0.03956">
        <ele>-29.193293333333</ele>
        <time>2017-10-15T09:36:23Z</time>
      </trkpt>
      <trkpt lat="44.6266" lon="-0.03963">
        <ele>-27.593586666667</ele>
        <time>2017-10-15T09:36:29Z</time>
      </trkpt>
      <trkpt lat="44.62657" lon="-0.03972">
        <ele>-27.89374</ele>
        <time>2017-10-15T09:36:34Z</time>
      </trkpt>
      <trkpt lat="44.62651" lon="-0.03981">
        <ele>-26.593946666667</ele>
        <time>2017-10-15T09:36:39Z</time>
      </trkpt>
      <trkpt lat="44.62646" lon="-0.0399">
        <ele>-25.29418</ele>
        <time>2017-10-15T09:36:44Z</time>
      </trkpt>
      <trkpt lat="44.62642" lon="-0.04001">
        <ele>-24.394333333333</ele>
        <time>2017-10-15T09:36:49Z</time>
      </trkpt>
      <trkpt lat="44.62637" lon="-0.04011">
        <ele>-23.194506666667</ele>
        <time>2017-10-15T09:36:56Z</time>
      </trkpt>
      <trkpt lat="44.62634" lon="-0.04021">
        <ele>-23.79464</ele>
        <time>2017-10-15T09:37:06Z</time>
      </trkpt>
      <trkpt lat="44.6263" lon="-0.04032">
        <ele>-19.494786666667</ele>
        <time>2017-10-15T09:37:21Z</time>
      </trkpt>
      <trkpt lat="44.62624" lon="-0.04038">
        <ele>-18.99506</ele>
        <time>2017-10-15T09:37:31Z</time>
      </trkpt>
      <trkpt lat="44.62621" lon="-0.0405">
        <ele>-20.89516</ele>
        <time>2017-10-15T09:38:36Z</time>
      </trkpt>
      <trkpt lat="44.62619" lon="-0.04061">
        <ele>-18.295246666667</ele>
        <time>2017-10-15T09:38:46Z</time>
      </trkpt>
      <trkpt lat="44.62623" lon="-0.04072">
        <ele>-14.095093333333</ele>
        <time>2017-10-15T09:38:54Z</time>
      </trkpt>
      <trkpt lat="44.62626" lon="-0.04081">
        <ele>-10.794946666667</ele>
        <time>2017-10-15T09:38:59Z</time>
      </trkpt>
      <trkpt lat="44.62626" lon="-0.04093">
        <ele>-6.89496</ele>
        <time>2017-10-15T09:39:06Z</time>
      </trkpt>
      <trkpt lat="44.62622" lon="-0.04104">
        <ele>-7.6951266666667</ele>
        <time>2017-10-15T09:39:13Z</time>
      </trkpt>
      <trkpt lat="44.6262" lon="-0.04114">
        <ele>-10.695206666667</ele>
        <time>2017-10-15T09:39:18Z</time>
      </trkpt>
      <trkpt lat="44.62614" lon="-0.04122">
        <ele>-19.39544</ele>
        <time>2017-10-15T09:39:23Z</time>
      </trkpt>
      <trkpt lat="44.62612" lon="-0.04134">
        <ele>-18.69552</ele>
        <time>2017-10-15T09:39:30Z</time>
      </trkpt>
      <trkpt lat="44.62607" lon="-0.04143">
        <ele>-15.895726666667</ele>
        <time>2017-10-15T09:39:36Z</time>
      </trkpt>
      <trkpt lat="44.62602" lon="-0.04152">
        <ele>-14.59594</ele>
        <time>2017-10-15T09:39:43Z</time>
      </trkpt>
      <trkpt lat="44.62601" lon="-0.04164">
        <ele>-9.9959666666667</ele>
        <time>2017-10-15T09:39:51Z</time>
      </trkpt>
      <trkpt lat="44.62605" lon="-0.04175">
        <ele>-13.895813333333</ele>
        <time>2017-10-15T09:39:59Z</time>
      </trkpt>
      <trkpt lat="44.62601" lon="-0.04185">
        <ele>-13.195946666667</ele>
        <time>2017-10-15T09:40:08Z</time>
      </trkpt>
      <trkpt lat="44.62599" lon="-0.04197">
        <ele>-11.49604</ele>
        <time>2017-10-15T09:40:15Z</time>
      </trkpt>
      <trkpt lat="44.62597" lon="-0.04209">
        <ele>-11.796133333333</ele>
        <time>2017-10-15T09:40:23Z</time>
      </trkpt>
      <trkpt lat="44.62593" lon="-0.0422">
        <ele>-14.69628</ele>
        <time>2017-10-15T09:40:32Z</time>
      </trkpt>
      <trkpt lat="44.62592" lon="-0.04232">
        <ele>-15.29632</ele>
        <time>2017-10-15T09:40:39Z</time>
      </trkpt>
      <trkpt lat="44.62589" lon="-0.04242">
        <ele>-20.89646</ele>
        <time>2017-10-15T09:40:49Z</time>
      </trkpt>
      <trkpt lat="44.62589" lon="-0.04254">
        <ele>-19.59646</ele>
        <time>2017-10-15T09:40:56Z</time>
      </trkpt>
      <trkpt lat="44.62587" lon="-0.04266">
        <ele>-18.396513333333</ele>
        <time>2017-10-15T09:41:05Z</time>
      </trkpt>
      <trkpt lat="44.62585" lon="-0.04278">
        <ele>-15.4966</ele>
        <time>2017-10-15T09:41:15Z</time>
      </trkpt>
      <trkpt lat="44.62582" lon="-0.04289">
        <ele>-14.196726666667</ele>
        <time>2017-10-15T09:41:22Z</time>
      </trkpt>
      <trkpt lat="44.6258" lon="-0.043">
        <ele>-13.296806666667</ele>
        <time>2017-10-15T09:41:28Z</time>
      </trkpt>
      <trkpt lat="44.62577" lon="-0.04311">
        <ele>-10.196933333333</ele>
        <time>2017-10-15T09:41:36Z</time>
      </trkpt>
      <trkpt lat="44.62572" lon="-0.04321">
        <ele>-12.297126666667</ele>
        <time>2017-10-15T09:41:42Z</time>
      </trkpt>
      <trkpt lat="44.62574" lon="-0.04333">
        <ele>-11.197033333333</ele>
        <time>2017-10-15T09:41:48Z</time>
      </trkpt>
      <trkpt lat="44.62576" lon="-0.04345">
        <ele>-11.59696</ele>
        <time>2017-10-15T09:41:56Z</time>
      </trkpt>
      <trkpt lat="44.62573" lon="-0.04356">
        <ele>-12.797093333333</ele>
        <time>2017-10-15T09:42:04Z</time>
      </trkpt>
      <trkpt lat="44.62569" lon="-0.04365">
        <ele>-13.397226666667</ele>
        <time>2017-10-15T09:42:13Z</time>
      </trkpt>
      <trkpt lat="44.62564" lon="-0.04373">
        <ele>-18.79744</ele>
        <time>2017-10-15T09:42:19Z</time>
      </trkpt>
      <trkpt lat="44.62562" lon="-0.04384">
        <ele>-21.397513333333</ele>
        <time>2017-10-15T09:42:26Z</time>
      </trkpt>
      <trkpt lat="44.62562" lon="-0.04396">
        <ele>-22.19754</ele>
        <time>2017-10-15T09:42:33Z</time>
      </trkpt>
      <trkpt lat="44.6256" lon="-0.04408">
        <ele>-22.297586666667</ele>
        <time>2017-10-15T09:42:40Z</time>
      </trkpt>
      <trkpt lat="44.62559" lon="-0.0442">
        <ele>-23.99764</ele>
        <time>2017-10-15T09:42:47Z</time>
      </trkpt>
      <trkpt lat="44.62557" lon="-0.04431">
        <ele>-26.197733333333</ele>
        <time>2017-10-15T09:42:53Z</time>
      </trkpt>
      <trkpt lat="44.62553" lon="-0.04443">
        <ele>-27.197886666667</ele>
        <time>2017-10-15T09:43:02Z</time>
      </trkpt>
      <trkpt lat="44.6255" lon="-0.04454">
        <ele>-26.19802</ele>
        <time>2017-10-15T09:43:09Z</time>
      </trkpt>
      <trkpt lat="44.62547" lon="-0.04465">
        <ele>-26.698106666667</ele>
        <time>2017-10-15T09:43:18Z</time>
      </trkpt>
      <trkpt lat="44.62545" lon="-0.04476">
        <ele>-24.998213333333</ele>
        <time>2017-10-15T09:43:26Z</time>
      </trkpt>
      <trkpt lat="44.62542" lon="-0.04488">
        <ele>-21.898306666667</ele>
        <time>2017-10-15T09:43:33Z</time>
      </trkpt>
      <trkpt lat="44.62541" lon="-0.04499">
        <ele>-15.198366666667</ele>
        <time>2017-10-15T09:43:41Z</time>
      </trkpt>
      <trkpt lat="44.62542" lon="-0.0451">
        <ele>-10.698306666667</ele>
        <time>2017-10-15T09:43:47Z</time>
      </trkpt>
      <trkpt lat="44.62542" lon="-0.04523">
        <ele>-7.9983333333334</ele>
        <time>2017-10-15T09:43:57Z</time>
      </trkpt>
      <trkpt lat="44.6254" lon="-0.04535">
        <ele>-10.3984</ele>
        <time>2017-10-15T09:44:07Z</time>
      </trkpt>
      <trkpt lat="44.62537" lon="-0.04546">
        <ele>-13.898526666667</ele>
        <time>2017-10-15T09:44:27Z</time>
      </trkpt>
      <trkpt lat="44.62536" lon="-0.04556">
        <ele>-14.298553333333</ele>
        <time>2017-10-15T09:44:35Z</time>
      </trkpt>
      <trkpt lat="44.62533" lon="-0.04568">
        <ele>-13.598666666667</ele>
        <time>2017-10-15T09:44:41Z</time>
      </trkpt>
      <trkpt lat="44.62532" lon="-0.04581">
        <ele>-15.298706666667</ele>
        <time>2017-10-15T09:44:49Z</time>
      </trkpt>
      <trkpt lat="44.62531" lon="-0.04593">
        <ele>-14.298746666667</ele>
        <time>2017-10-15T09:44:58Z</time>
      </trkpt>
      <trkpt lat="44.62528" lon="-0.04605">
        <ele>-14.698873333333</ele>
        <time>2017-10-15T09:45:04Z</time>
      </trkpt>
      <trkpt lat="44.62526" lon="-0.04615">
        <ele>-14.798953333333</ele>
        <time>2017-10-15T09:45:11Z</time>
      </trkpt>
      <trkpt lat="44.62521" lon="-0.04626">
        <ele>-16.499153333333</ele>
        <time>2017-10-15T09:45:20Z</time>
      </trkpt>
      <trkpt lat="44.62518" lon="-0.04636">
        <ele>-14.799273333333</ele>
        <time>2017-10-15T09:45:27Z</time>
      </trkpt>
      <trkpt lat="44.62514" lon="-0.04647">
        <ele>-15.99944</ele>
        <time>2017-10-15T09:45:36Z</time>
      </trkpt>
      <trkpt lat="44.62512" lon="-0.04659">
        <ele>-14.99954</ele>
        <time>2017-10-15T09:45:47Z</time>
      </trkpt>
      <trkpt lat="44.6251" lon="-0.0467">
        <ele>-14.999613333333</ele>
        <time>2017-10-15T09:45:56Z</time>
      </trkpt>
      <trkpt lat="44.62508" lon="-0.04682">
        <ele>-20.599693333333</ele>
        <time>2017-10-15T09:46:04Z</time>
      </trkpt>
      <trkpt lat="44.62503" lon="-0.04692">
        <ele>-27.899873333333</ele>
        <time>2017-10-15T09:46:14Z</time>
      </trkpt>
      <trkpt lat="44.62508" lon="-0.04702">
        <ele>-25.99968</ele>
        <time>2017-10-15T09:46:21Z</time>
      </trkpt>
      <trkpt lat="44.6251" lon="-0.04714">
        <ele>-24.499606666667</ele>
        <time>2017-10-15T09:46:36Z</time>
      </trkpt>
      <trkpt lat="44.62508" lon="-0.04726">
        <ele>-21.199693333333</ele>
        <time>2017-10-15T09:46:43Z</time>
      </trkpt>
      <trkpt lat="44.62509" lon="-0.04738">
        <ele>-19.79966</ele>
        <time>2017-10-15T09:46:50Z</time>
      </trkpt>
      <trkpt lat="44.62507" lon="-0.04749">
        <ele>-19.399726666667</ele>
        <time>2017-10-15T09:46:57Z</time>
      </trkpt>
      <trkpt lat="44.62504" lon="-0.04759">
        <ele>-17.69986</ele>
        <time>2017-10-15T09:47:04Z</time>
      </trkpt>
      <trkpt lat="44.625" lon="-0.04769">
        <ele>-14.10002</ele>
        <time>2017-10-15T09:47:11Z</time>
      </trkpt>
      <trkpt lat="44.62496" lon="-0.0478">
        <ele>-11.500146666667</ele>
        <time>2017-10-15T09:47:18Z</time>
      </trkpt>
      <trkpt lat="44.62494" lon="-0.04792">
        <ele>-11.20024</ele>
        <time>2017-10-15T09:47:24Z</time>
      </trkpt>
      <trkpt lat="44.62491" lon="-0.04802">
        <ele>-13.50036</ele>
        <time>2017-10-15T09:47:30Z</time>
      </trkpt>
      <trkpt lat="44.6249" lon="-0.04813">
        <ele>-14.900393333333</ele>
        <time>2017-10-15T09:47:36Z</time>
      </trkpt>
      <trkpt lat="44.62492" lon="-0.04825">
        <ele>-18.40032</ele>
        <time>2017-10-15T09:47:42Z</time>
      </trkpt>
      <trkpt lat="44.62491" lon="-0.04837">
        <ele>-23.20036</ele>
        <time>2017-10-15T09:47:49Z</time>
      </trkpt>
      <trkpt lat="44.62492" lon="-0.04848">
        <ele>-27.200326666667</ele>
        <time>2017-10-15T09:47:57Z</time>
      </trkpt>
      <trkpt lat="44.62491" lon="-0.0486">
        <ele>-27.400346666667</ele>
        <time>2017-10-15T09:48:04Z</time>
      </trkpt>
      <trkpt lat="44.6249" lon="-0.04871">
        <ele>-26.70042</ele>
        <time>2017-10-15T09:48:11Z</time>
      </trkpt>
      <trkpt lat="44.62489" lon="-0.04883">
        <ele>-28.10046</ele>
        <time>2017-10-15T09:48:18Z</time>
      </trkpt>
      <trkpt lat="44.62489" lon="-0.04895">
        <ele>-27.200446666667</ele>
        <time>2017-10-15T09:48:24Z</time>
      </trkpt>
      <trkpt lat="44.62489" lon="-0.04907">
        <ele>-26.10044</ele>
        <time>2017-10-15T09:48:34Z</time>
      </trkpt>
      <trkpt lat="44.62489" lon="-0.04919">
        <ele>-26.500433333333</ele>
        <time>2017-10-15T09:48:40Z</time>
      </trkpt>
      <trkpt lat="44.62488" lon="-0.0493">
        <ele>-27.200493333333</ele>
        <time>2017-10-15T09:48:47Z</time>
      </trkpt>
      <trkpt lat="44.62484" lon="-0.0494">
        <ele>-26.30066</ele>
        <time>2017-10-15T09:49:10Z</time>
      </trkpt>
      <trkpt lat="44.62476" lon="-0.04942">
        <ele>-25.700953333333</ele>
        <time>2017-10-15T09:49:57Z</time>
      </trkpt>
      <trkpt lat="44.62481" lon="-0.04934">
        <ele>-25.700753333333</ele>
        <time>2017-10-15T09:50:04Z</time>
      </trkpt>
      <trkpt lat="44.62487" lon="-0.04943">
        <ele>-27.60052</ele>
        <time>2017-10-15T09:50:16Z</time>
      </trkpt>
      <trkpt lat="44.6249" lon="-0.04954">
        <ele>-29.9004</ele>
        <time>2017-10-15T09:50:25Z</time>
      </trkpt>
      <trkpt lat="44.62491" lon="-0.04966">
        <ele>-30.00036</ele>
        <time>2017-10-15T09:50:34Z</time>
      </trkpt>
      <trkpt lat="44.62486" lon="-0.04976">
        <ele>-33.700546666667</ele>
        <time>2017-10-15T09:50:42Z</time>
      </trkpt>
      <trkpt lat="44.62484" lon="-0.04987">
        <ele>-33.00064</ele>
        <time>2017-10-15T09:50:50Z</time>
      </trkpt>
      <trkpt lat="44.62483" lon="-0.04998">
        <ele>-31.80068</ele>
        <time>2017-10-15T09:51:02Z</time>
      </trkpt>
      <trkpt lat="44.62484" lon="-0.05009">
        <ele>-32.000633333333</ele>
        <time>2017-10-15T09:51:11Z</time>
      </trkpt>
      <trkpt lat="44.62486" lon="-0.0502">
        <ele>-31.900546666667</ele>
        <time>2017-10-15T09:51:20Z</time>
      </trkpt>
      <trkpt lat="44.62487" lon="-0.05033">
        <ele>-30.200506666667</ele>
        <time>2017-10-15T09:51:28Z</time>
      </trkpt>
      <trkpt lat="44.62491" lon="-0.05044">
        <ele>-31.00036</ele>
        <time>2017-10-15T09:51:34Z</time>
      </trkpt>
      <trkpt lat="44.62494" lon="-0.05054">
        <ele>-30.400233333333</ele>
        <time>2017-10-15T09:51:43Z</time>
      </trkpt>
      <trkpt lat="44.62489" lon="-0.05063">
        <ele>-27.900433333333</ele>
        <time>2017-10-15T09:51:49Z</time>
      </trkpt>
      <trkpt lat="44.62487" lon="-0.05074">
        <ele>-28.900513333333</ele>
        <time>2017-10-15T09:51:56Z</time>
      </trkpt>
      <trkpt lat="44.62486" lon="-0.05085">
        <ele>-25.600566666667</ele>
        <time>2017-10-15T09:52:01Z</time>
      </trkpt>
      <trkpt lat="44.62487" lon="-0.05096">
        <ele>-22.700526666667</ele>
        <time>2017-10-15T09:52:06Z</time>
      </trkpt>
      <trkpt lat="44.62487" lon="-0.05108">
        <ele>-20.000533333333</ele>
        <time>2017-10-15T09:52:12Z</time>
      </trkpt>
      <trkpt lat="44.6249" lon="-0.05118">
        <ele>-19.300406666667</ele>
        <time>2017-10-15T09:52:18Z</time>
      </trkpt>
      <trkpt lat="44.62492" lon="-0.05129">
        <ele>-16.400313333333</ele>
        <time>2017-10-15T09:52:25Z</time>
      </trkpt>
      <trkpt lat="44.62491" lon="-0.05141">
        <ele>-13.000373333333</ele>
        <time>2017-10-15T09:52:35Z</time>
      </trkpt>
      <trkpt lat="44.62491" lon="-0.05153">
        <ele>-12.80036</ele>
        <time>2017-10-15T09:52:44Z</time>
      </trkpt>
      <trkpt lat="44.62495" lon="-0.05164">
        <ele>-16.80022</ele>
        <time>2017-10-15T09:52:55Z</time>
      </trkpt>
      <trkpt lat="44.62494" lon="-0.05176">
        <ele>-17.70026</ele>
        <time>2017-10-15T09:53:02Z</time>
      </trkpt>
      <trkpt lat="44.62495" lon="-0.05187">
        <ele>-18.800213333333</ele>
        <time>2017-10-15T09:53:10Z</time>
      </trkpt>
      <trkpt lat="44.62493" lon="-0.05199">
        <ele>-17.400273333333</ele>
        <time>2017-10-15T09:53:18Z</time>
      </trkpt>
      <trkpt lat="44.62495" lon="-0.05211">
        <ele>-15.800213333333</ele>
        <time>2017-10-15T09:53:25Z</time>
      </trkpt>
      <trkpt lat="44.62496" lon="-0.05222">
        <ele>-15.200173333333</ele>
        <time>2017-10-15T09:53:32Z</time>
      </trkpt>
      <trkpt lat="44.62496" lon="-0.05234">
        <ele>-13.700173333333</ele>
        <time>2017-10-15T09:53:43Z</time>
      </trkpt>
      <trkpt lat="44.62493" lon="-0.05246">
        <ele>-14.400266666667</ele>
        <time>2017-10-15T09:53:51Z</time>
      </trkpt>
      <trkpt lat="44.62499" lon="-0.05256">
        <ele>-19.20006</ele>
        <time>2017-10-15T09:54:00Z</time>
      </trkpt>
      <trkpt lat="44.62501" lon="-0.05267">
        <ele>-20.799946666667</ele>
        <time>2017-10-15T09:54:06Z</time>
      </trkpt>
      <trkpt lat="44.62496" lon="-0.05276">
        <ele>-22.900153333333</ele>
        <time>2017-10-15T09:54:14Z</time>
      </trkpt>
      <trkpt lat="44.62499" lon="-0.05287">
        <ele>-25.300046666667</ele>
        <time>2017-10-15T09:54:21Z</time>
      </trkpt>
      <trkpt lat="44.62501" lon="-0.05298">
        <ele>-25.69996</ele>
        <time>2017-10-15T09:54:29Z</time>
      </trkpt>
      <trkpt lat="44.62502" lon="-0.0531">
        <ele>-26.49994</ele>
        <time>2017-10-15T09:54:37Z</time>
      </trkpt>
      <trkpt lat="44.62504" lon="-0.05321">
        <ele>-26.79984</ele>
        <time>2017-10-15T09:54:43Z</time>
      </trkpt>
      <trkpt lat="44.62501" lon="-0.05331">
        <ele>-25.999966666667</ele>
        <time>2017-10-15T09:54:52Z</time>
      </trkpt>
      <trkpt lat="44.62498" lon="-0.05342">
        <ele>-24.800073333333</ele>
        <time>2017-10-15T09:54:58Z</time>
      </trkpt>
      <trkpt lat="44.62498" lon="-0.05354">
        <ele>-24.700086666667</ele>
        <time>2017-10-15T09:55:05Z</time>
      </trkpt>
      <trkpt lat="44.62498" lon="-0.05366">
        <ele>-24.50008</ele>
        <time>2017-10-15T09:55:13Z</time>
      </trkpt>
      <trkpt lat="44.625" lon="-0.05378">
        <ele>-23.40002</ele>
        <time>2017-10-15T09:55:20Z</time>
      </trkpt>
      <trkpt lat="44.62502" lon="-0.05388">
        <ele>-22.399933333333</ele>
        <time>2017-10-15T09:55:27Z</time>
      </trkpt>
      <trkpt lat="44.62504" lon="-0.05399">
        <ele>-21.199826666667</ele>
        <time>2017-10-15T09:55:33Z</time>
      </trkpt>
      <trkpt lat="44.62498" lon="-0.05406">
        <ele>-20.100073333333</ele>
        <time>2017-10-15T09:55:57Z</time>
      </trkpt>
      <trkpt lat="44.62496" lon="-0.05417">
        <ele>-22.00018</ele>
        <time>2017-10-15T09:56:05Z</time>
      </trkpt>
      <trkpt lat="44.62496" lon="-0.05429">
        <ele>-21.800166666667</ele>
        <time>2017-10-15T09:56:12Z</time>
      </trkpt>
      <trkpt lat="44.62498" lon="-0.05441">
        <ele>-21.10008</ele>
        <time>2017-10-15T09:56:19Z</time>
      </trkpt>
      <trkpt lat="44.62501" lon="-0.05452">
        <ele>-19.699973333333</ele>
        <time>2017-10-15T09:56:25Z</time>
      </trkpt>
      <trkpt lat="44.62497" lon="-0.05463">
        <ele>-19.00014</ele>
        <time>2017-10-15T09:56:34Z</time>
      </trkpt>
      <trkpt lat="44.62501" lon="-0.05474">
        <ele>-24.099973333333</ele>
        <time>2017-10-15T09:56:41Z</time>
      </trkpt>
      <trkpt lat="44.62498" lon="-0.05485">
        <ele>-22.90008</ele>
        <time>2017-10-15T09:56:48Z</time>
      </trkpt>
      <trkpt lat="44.62495" lon="-0.05497">
        <ele>-24.300213333333</ele>
        <time>2017-10-15T09:57:03Z</time>
      </trkpt>
      <trkpt lat="44.62492" lon="-0.05507">
        <ele>-25.100333333333</ele>
        <time>2017-10-15T09:57:10Z</time>
      </trkpt>
      <trkpt lat="44.62494" lon="-0.05519">
        <ele>-25.20026</ele>
        <time>2017-10-15T09:57:17Z</time>
      </trkpt>
      <trkpt lat="44.62489" lon="-0.05529">
        <ele>-26.20046</ele>
        <time>2017-10-15T09:57:27Z</time>
      </trkpt>
      <trkpt lat="44.62488" lon="-0.0554">
        <ele>-27.000466666667</ele>
        <time>2017-10-15T09:57:35Z</time>
      </trkpt>
      <trkpt lat="44.6249" lon="-0.05551">
        <ele>-27.2004</ele>
        <time>2017-10-15T09:57:41Z</time>
      </trkpt>
      <trkpt lat="44.62494" lon="-0.05562">
        <ele>-27.20026</ele>
        <time>2017-10-15T09:57:47Z</time>
      </trkpt>
      <trkpt lat="44.62495" lon="-0.05573">
        <ele>-27.0002</ele>
        <time>2017-10-15T09:57:55Z</time>
      </trkpt>
      <trkpt lat="44.62495" lon="-0.05585">
        <ele>-27.00022</ele>
        <time>2017-10-15T09:58:02Z</time>
      </trkpt>
      <trkpt lat="44.62492" lon="-0.05592">
        <ele>-27.400306666667</ele>
        <time>2017-10-15T09:58:32Z</time>
      </trkpt>
      <trkpt lat="44.62494" lon="-0.05603">
        <ele>-27.000246666667</ele>
        <time>2017-10-15T09:58:36Z</time>
      </trkpt>
      <trkpt lat="44.62495" lon="-0.05615">
        <ele>-26.60022</ele>
        <time>2017-10-15T09:58:46Z</time>
      </trkpt>
      <trkpt lat="44.62493" lon="-0.05627">
        <ele>-26.3003</ele>
        <time>2017-10-15T09:58:57Z</time>
      </trkpt>
      <trkpt lat="44.62494" lon="-0.05639">
        <ele>-26.200253333333</ele>
        <time>2017-10-15T09:59:04Z</time>
      </trkpt>
      <trkpt lat="44.62498" lon="-0.0565">
        <ele>-26.0001</ele>
        <time>2017-10-15T09:59:16Z</time>
      </trkpt>
      <trkpt lat="44.62497" lon="-0.05662">
        <ele>-25.800126666667</ele>
        <time>2017-10-15T09:59:23Z</time>
      </trkpt>
      <trkpt lat="44.62494" lon="-0.05673">
        <ele>-25.600226666667</ele>
        <time>2017-10-15T09:59:31Z</time>
      </trkpt>
      <trkpt lat="44.62493" lon="-0.05685">
        <ele>-25.4003</ele>
        <time>2017-10-15T09:59:39Z</time>
      </trkpt>
      <trkpt lat="44.62492" lon="-0.05696">
        <ele>-25.000306666667</ele>
        <time>2017-10-15T09:59:48Z</time>
      </trkpt>
      <trkpt lat="44.62494" lon="-0.05707">
        <ele>-24.50026</ele>
        <time>2017-10-15T09:59:55Z</time>
      </trkpt>
      <trkpt lat="44.62496" lon="-0.05719">
        <ele>-24.000153333333</ele>
        <time>2017-10-15T10:00:06Z</time>
      </trkpt>
      <trkpt lat="44.62496" lon="-0.0573">
        <ele>-23.800146666667</ele>
        <time>2017-10-15T10:00:13Z</time>
      </trkpt>
      <trkpt lat="44.62491" lon="-0.05737">
        <ele>-24.30038</ele>
        <time>2017-10-15T10:00:23Z</time>
      </trkpt>
      <trkpt lat="44.62485" lon="-0.05744">
        <ele>-25.000593333333</ele>
        <time>2017-10-15T10:00:30Z</time>
      </trkpt>
      <trkpt lat="44.62476" lon="-0.05743">
        <ele>-26.00096</ele>
        <time>2017-10-15T10:00:35Z</time>
      </trkpt>
      <trkpt lat="44.62469" lon="-0.05749">
        <ele>-28.90126</ele>
        <time>2017-10-15T10:00:46Z</time>
      </trkpt>
      <trkpt lat="44.62469" lon="-0.0574">
        <ele>-32.601253333333</ele>
        <time>2017-10-15T10:01:07Z</time>
      </trkpt>
      <trkpt lat="44.62482" lon="-0.05754">
        <ele>-33.900726666667</ele>
        <time>2017-10-15T10:01:11Z</time>
      </trkpt>
      <trkpt lat="44.62488" lon="-0.05761">
        <ele>-33.500493333333</ele>
        <time>2017-10-15T10:01:16Z</time>
      </trkpt>
      <trkpt lat="44.62492" lon="-0.05771">
        <ele>-32.60032</ele>
        <time>2017-10-15T10:01:23Z</time>
      </trkpt>
      <trkpt lat="44.62497" lon="-0.05781">
        <ele>-31.900133333333</ele>
        <time>2017-10-15T10:01:29Z</time>
      </trkpt>
      <trkpt lat="44.62501" lon="-0.05793">
        <ele>-31.499966666667</ele>
        <time>2017-10-15T10:01:34Z</time>
      </trkpt>
      <trkpt lat="44.62505" lon="-0.05804">
        <ele>-29.9998</ele>
        <time>2017-10-15T10:01:42Z</time>
      </trkpt>
      <trkpt lat="44.62511" lon="-0.05812">
        <ele>-29.999573333333</ele>
        <time>2017-10-15T10:01:50Z</time>
      </trkpt>
      <trkpt lat="44.62512" lon="-0.05824">
        <ele>-29.299526666667</ele>
        <time>2017-10-15T10:02:01Z</time>
      </trkpt>
      <trkpt lat="44.62517" lon="-0.05833">
        <ele>-28.699333333333</ele>
        <time>2017-10-15T10:02:10Z</time>
      </trkpt>
      <trkpt lat="44.62523" lon="-0.05842">
        <ele>-27.99908</ele>
        <time>2017-10-15T10:02:17Z</time>
      </trkpt>
      <trkpt lat="44.62531" lon="-0.05846">
        <ele>-27.39878</ele>
        <time>2017-10-15T10:02:23Z</time>
      </trkpt>
      <trkpt lat="44.62537" lon="-0.05851">
        <ele>-26.698506666667</ele>
        <time>2017-10-15T10:02:30Z</time>
      </trkpt>
      <trkpt lat="44.6255" lon="-0.05846">
        <ele>-25.99802</ele>
        <time>2017-10-15T10:02:34Z</time>
      </trkpt>
      <trkpt lat="44.62556" lon="-0.05854">
        <ele>-25.29778</ele>
        <time>2017-10-15T10:02:41Z</time>
      </trkpt>
      <trkpt lat="44.62562" lon="-0.0586">
        <ele>-24.99752</ele>
        <time>2017-10-15T10:02:49Z</time>
      </trkpt>
      <trkpt lat="44.62576" lon="-0.05856">
        <ele>-26.89698</ele>
        <time>2017-10-15T10:02:54Z</time>
      </trkpt>
      <trkpt lat="44.62574" lon="-0.05861">
        <ele>-29.797026666667</ele>
        <time>2017-10-15T10:03:36Z</time>
      </trkpt>
      <trkpt lat="44.62577" lon="-0.05873">
        <ele>-28.296926666667</ele>
        <time>2017-10-15T10:03:47Z</time>
      </trkpt>
      <trkpt lat="44.62585" lon="-0.05877">
        <ele>-35.0966</ele>
        <time>2017-10-15T10:04:19Z</time>
      </trkpt>
      <trkpt lat="44.62593" lon="-0.05882">
        <ele>-35.9963</ele>
        <time>2017-10-15T10:04:40Z</time>
      </trkpt>
      <trkpt lat="44.626" lon="-0.05886">
        <ele>-36.295993333333</ele>
        <time>2017-10-15T10:04:50Z</time>
      </trkpt>
      <trkpt lat="44.62606" lon="-0.05893">
        <ele>-36.495746666667</ele>
        <time>2017-10-15T10:04:57Z</time>
      </trkpt>
      <trkpt lat="44.62611" lon="-0.05901">
        <ele>-36.795566666667</ele>
        <time>2017-10-15T10:05:04Z</time>
      </trkpt>
      <trkpt lat="44.62617" lon="-0.05908">
        <ele>-36.995306666667</ele>
        <time>2017-10-15T10:05:09Z</time>
      </trkpt>
      <trkpt lat="44.62623" lon="-0.05916">
        <ele>-37.195066666667</ele>
        <time>2017-10-15T10:05:15Z</time>
      </trkpt>
      <trkpt lat="44.6263" lon="-0.05922">
        <ele>-37.394793333333</ele>
        <time>2017-10-15T10:05:21Z</time>
      </trkpt>
      <trkpt lat="44.62632" lon="-0.05933">
        <ele>-37.69474</ele>
        <time>2017-10-15T10:05:31Z</time>
      </trkpt>
      <trkpt lat="44.62638" lon="-0.0594">
        <ele>-37.694473333333</ele>
        <time>2017-10-15T10:05:37Z</time>
      </trkpt>
      <trkpt lat="44.62646" lon="-0.05947">
        <ele>-37.69416</ele>
        <time>2017-10-15T10:05:44Z</time>
      </trkpt>
      <trkpt lat="44.62655" lon="-0.05944">
        <ele>-38.79382</ele>
        <time>2017-10-15T10:05:51Z</time>
      </trkpt>
      <trkpt lat="44.6266" lon="-0.05941">
        <ele>-39.49362</ele>
        <time>2017-10-15T10:06:28Z</time>
      </trkpt>
      <trkpt lat="44.62667" lon="-0.05946">
        <ele>-41.193306666667</ele>
        <time>2017-10-15T10:06:38Z</time>
      </trkpt>
      <trkpt lat="44.62674" lon="-0.05953">
        <ele>-41.493053333333</ele>
        <time>2017-10-15T10:06:50Z</time>
      </trkpt>
      <trkpt lat="44.62681" lon="-0.0596">
        <ele>-39.992766666667</ele>
        <time>2017-10-15T10:06:58Z</time>
      </trkpt>
      <trkpt lat="44.62683" lon="-0.05971">
        <ele>-35.692666666667</ele>
        <time>2017-10-15T10:07:14Z</time>
      </trkpt>
      <trkpt lat="44.62691" lon="-0.05977">
        <ele>-32.292366666667</ele>
        <time>2017-10-15T10:07:19Z</time>
      </trkpt>
      <trkpt lat="44.62699" lon="-0.05983">
        <ele>-31.092046666667</ele>
        <time>2017-10-15T10:07:26Z</time>
      </trkpt>
      <trkpt lat="44.62706" lon="-0.05989">
        <ele>-33.29176</ele>
        <time>2017-10-15T10:07:34Z</time>
      </trkpt>
      <trkpt lat="44.62714" lon="-0.05994">
        <ele>-34.391453333333</ele>
        <time>2017-10-15T10:07:43Z</time>
      </trkpt>
      <trkpt lat="44.62722" lon="-0.05991">
        <ele>-39.79112</ele>
        <time>2017-10-15T10:08:14Z</time>
      </trkpt>
      <trkpt lat="44.62731" lon="-0.05988">
        <ele>-39.79078</ele>
        <time>2017-10-15T10:08:22Z</time>
      </trkpt>
      <trkpt lat="44.62739" lon="-0.0599">
        <ele>-39.690446666667</ele>
        <time>2017-10-15T10:08:32Z</time>
      </trkpt>
      <trkpt lat="44.62747" lon="-0.05987">
        <ele>-39.59014</ele>
        <time>2017-10-15T10:08:36Z</time>
      </trkpt>
      <trkpt lat="44.62755" lon="-0.05985">
        <ele>-39.489793333333</ele>
        <time>2017-10-15T10:08:45Z</time>
      </trkpt>
      <trkpt lat="44.62764" lon="-0.05982">
        <ele>-39.589453333333</ele>
        <time>2017-10-15T10:08:56Z</time>
      </trkpt>
      <trkpt lat="44.6277" lon="-0.0598">
        <ele>-39.889193333333</ele>
        <time>2017-10-15T10:09:04Z</time>
      </trkpt>
      <trkpt lat="44.62778" lon="-0.05976">
        <ele>-40.18888</ele>
        <time>2017-10-15T10:09:08Z</time>
      </trkpt>
      <trkpt lat="44.62786" lon="-0.05973">
        <ele>-40.48858</ele>
        <time>2017-10-15T10:09:13Z</time>
      </trkpt>
      <trkpt lat="44.62794" lon="-0.05972">
        <ele>-40.688233333333</ele>
        <time>2017-10-15T10:09:20Z</time>
      </trkpt>
      <trkpt lat="44.62803" lon="-0.05971">
        <ele>-41.0879</ele>
        <time>2017-10-15T10:09:31Z</time>
      </trkpt>
      <trkpt lat="44.62811" lon="-0.05968">
        <ele>-40.987573333333</ele>
        <time>2017-10-15T10:09:53Z</time>
      </trkpt>
      <trkpt lat="44.62818" lon="-0.05967">
        <ele>-40.987273333333</ele>
        <time>2017-10-15T10:09:59Z</time>
      </trkpt>
      <trkpt lat="44.62826" lon="-0.05965">
        <ele>-40.68696</ele>
        <time>2017-10-15T10:10:04Z</time>
      </trkpt>
      <trkpt lat="44.62834" lon="-0.05963">
        <ele>-40.48664</ele>
        <time>2017-10-15T10:10:10Z</time>
      </trkpt>
      <trkpt lat="44.62842" lon="-0.0596">
        <ele>-40.286306666667</ele>
        <time>2017-10-15T10:10:18Z</time>
      </trkpt>
      <trkpt lat="44.6285" lon="-0.05957">
        <ele>-40.286006666667</ele>
        <time>2017-10-15T10:10:29Z</time>
      </trkpt>
      <trkpt lat="44.62859" lon="-0.05957">
        <ele>-40.085653333333</ele>
        <time>2017-10-15T10:10:37Z</time>
      </trkpt>
      <trkpt lat="44.62867" lon="-0.05955">
        <ele>-39.685326666667</ele>
        <time>2017-10-15T10:10:46Z</time>
      </trkpt>
      <trkpt lat="44.62875" lon="-0.05954">
        <ele>-39.285</ele>
        <time>2017-10-15T10:10:52Z</time>
      </trkpt>
      <trkpt lat="44.62883" lon="-0.05953">
        <ele>-39.084666666667</ele>
        <time>2017-10-15T10:11:00Z</time>
      </trkpt>
      <trkpt lat="44.62892" lon="-0.05956">
        <ele>-39.08432</ele>
        <time>2017-10-15T10:11:06Z</time>
      </trkpt>
      <trkpt lat="44.629" lon="-0.05954">
        <ele>-39.083993333333</ele>
        <time>2017-10-15T10:11:20Z</time>
      </trkpt>
      <trkpt lat="44.62909" lon="-0.05953">
        <ele>-38.683646666667</ele>
        <time>2017-10-15T10:11:27Z</time>
      </trkpt>
      <trkpt lat="44.62916" lon="-0.05957">
        <ele>-38.38336</ele>
        <time>2017-10-15T10:11:35Z</time>
      </trkpt>
      <trkpt lat="44.62924" lon="-0.05962">
        <ele>-38.683026666667</ele>
        <time>2017-10-15T10:11:42Z</time>
      </trkpt>
      <trkpt lat="44.62932" lon="-0.05967">
        <ele>-39.08272</ele>
        <time>2017-10-15T10:11:47Z</time>
      </trkpt>
      <trkpt lat="44.6294" lon="-0.05964">
        <ele>-40.282393333333</ele>
        <time>2017-10-15T10:11:56Z</time>
      </trkpt>
      <trkpt lat="44.62948" lon="-0.05958">
        <ele>-40.282093333333</ele>
        <time>2017-10-15T10:12:08Z</time>
      </trkpt>
      <trkpt lat="44.62953" lon="-0.05969">
        <ele>-39.9819</ele>
        <time>2017-10-15T10:12:23Z</time>
      </trkpt>
      <trkpt lat="44.62959" lon="-0.05977">
        <ele>-39.98166</ele>
        <time>2017-10-15T10:12:30Z</time>
      </trkpt>
      <trkpt lat="44.62966" lon="-0.05984">
        <ele>-39.88138</ele>
        <time>2017-10-15T10:12:37Z</time>
      </trkpt>
      <trkpt lat="44.62971" lon="-0.05993">
        <ele>-40.181146666667</ele>
        <time>2017-10-15T10:12:50Z</time>
      </trkpt>
      <trkpt lat="44.62977" lon="-0.06002">
        <ele>-40.180913333333</ele>
        <time>2017-10-15T10:13:02Z</time>
      </trkpt>
      <trkpt lat="44.62985" lon="-0.06005">
        <ele>-41.480593333333</ele>
        <time>2017-10-15T10:13:07Z</time>
      </trkpt>
      <trkpt lat="44.62991" lon="-0.06013">
        <ele>-41.680353333333</ele>
        <time>2017-10-15T10:13:14Z</time>
      </trkpt>
      <trkpt lat="44.62998" lon="-0.06019">
        <ele>-41.980086666667</ele>
        <time>2017-10-15T10:13:21Z</time>
      </trkpt>
      <trkpt lat="44.63004" lon="-0.06028">
        <ele>-41.679826666667</ele>
        <time>2017-10-15T10:13:32Z</time>
      </trkpt>
      <trkpt lat="44.63011" lon="-0.06036">
        <ele>-41.379553333333</ele>
        <time>2017-10-15T10:13:41Z</time>
      </trkpt>
      <trkpt lat="44.63019" lon="-0.0604">
        <ele>-40.979233333333</ele>
        <time>2017-10-15T10:13:49Z</time>
      </trkpt>
      <trkpt lat="44.63026" lon="-0.06046">
        <ele>-40.578946666667</ele>
        <time>2017-10-15T10:13:55Z</time>
      </trkpt>
      <trkpt lat="44.63034" lon="-0.06051">
        <ele>-39.878646666667</ele>
        <time>2017-10-15T10:14:00Z</time>
      </trkpt>
      <trkpt lat="44.63038" lon="-0.06062">
        <ele>-39.77848</ele>
        <time>2017-10-15T10:14:11Z</time>
      </trkpt>
      <trkpt lat="44.63045" lon="-0.06067">
        <ele>-38.678193333333</ele>
        <time>2017-10-15T10:14:15Z</time>
      </trkpt>
      <trkpt lat="44.63053" lon="-0.06074">
        <ele>-36.5779</ele>
        <time>2017-10-15T10:14:19Z</time>
      </trkpt>
      <trkpt lat="44.63059" lon="-0.0608">
        <ele>-35.077633333333</ele>
        <time>2017-10-15T10:14:23Z</time>
      </trkpt>
      <trkpt lat="44.63067" lon="-0.06084">
        <ele>-33.677313333333</ele>
        <time>2017-10-15T10:14:29Z</time>
      </trkpt>
      <trkpt lat="44.63076" lon="-0.06084">
        <ele>-35.07696</ele>
        <time>2017-10-15T10:14:36Z</time>
      </trkpt>
      <trkpt lat="44.6308" lon="-0.06094">
        <ele>-34.076813333333</ele>
        <time>2017-10-15T10:14:50Z</time>
      </trkpt>
      <trkpt lat="44.63081" lon="-0.06106">
        <ele>-33.37678</ele>
        <time>2017-10-15T10:14:58Z</time>
      </trkpt>
      <trkpt lat="44.63079" lon="-0.06118">
        <ele>-32.476853333333</ele>
        <time>2017-10-15T10:15:06Z</time>
      </trkpt>
      <trkpt lat="44.63075" lon="-0.06129">
        <ele>-31.677006666667</ele>
        <time>2017-10-15T10:15:13Z</time>
      </trkpt>
      <trkpt lat="44.63074" lon="-0.06141">
        <ele>-30.677046666667</ele>
        <time>2017-10-15T10:15:21Z</time>
      </trkpt>
      <trkpt lat="44.63073" lon="-0.06152">
        <ele>-29.677066666667</ele>
        <time>2017-10-15T10:15:29Z</time>
      </trkpt>
      <trkpt lat="44.63075" lon="-0.06164">
        <ele>-28.477013333333</ele>
        <time>2017-10-15T10:15:38Z</time>
      </trkpt>
      <trkpt lat="44.63076" lon="-0.06176">
        <ele>-26.476946666667</ele>
        <time>2017-10-15T10:15:48Z</time>
      </trkpt>
      <trkpt lat="44.63068" lon="-0.0618">
        <ele>-24.077286666667</ele>
        <time>2017-10-15T10:15:57Z</time>
      </trkpt>
      <trkpt lat="44.6306" lon="-0.06184">
        <ele>-23.177606666667</ele>
        <time>2017-10-15T10:16:03Z</time>
      </trkpt>
      <trkpt lat="44.63051" lon="-0.06186">
        <ele>-22.777953333333</ele>
        <time>2017-10-15T10:16:10Z</time>
      </trkpt>
      <trkpt lat="44.63044" lon="-0.06185">
        <ele>-22.478233333333</ele>
        <time>2017-10-15T10:16:15Z</time>
      </trkpt>
      <trkpt lat="44.63037" lon="-0.06186">
        <ele>-22.17854</ele>
        <time>2017-10-15T10:16:19Z</time>
      </trkpt>
      <trkpt lat="44.63028" lon="-0.06186">
        <ele>-21.778866666667</ele>
        <time>2017-10-15T10:16:24Z</time>
      </trkpt>
      <trkpt lat="44.6302" lon="-0.06188">
        <ele>-21.27922</ele>
        <time>2017-10-15T10:16:30Z</time>
      </trkpt>
      <trkpt lat="44.63013" lon="-0.06195">
        <ele>-20.6795</ele>
        <time>2017-10-15T10:16:35Z</time>
      </trkpt>
      <trkpt lat="44.63008" lon="-0.06202">
        <ele>-20.179693333333</ele>
        <time>2017-10-15T10:16:39Z</time>
      </trkpt>
      <trkpt lat="44.63004" lon="-0.06213">
        <ele>-19.579826666667</ele>
        <time>2017-10-15T10:16:44Z</time>
      </trkpt>
      <trkpt lat="44.6301" lon="-0.06218">
        <ele>-19.879613333333</ele>
        <time>2017-10-15T10:16:49Z</time>
      </trkpt>
      <trkpt lat="44.63006" lon="-0.0623">
        <ele>-19.479746666667</ele>
        <time>2017-10-15T10:16:58Z</time>
      </trkpt>
      <trkpt lat="44.63005" lon="-0.06241">
        <ele>-18.97982</ele>
        <time>2017-10-15T10:17:04Z</time>
      </trkpt>
      <trkpt lat="44.63001" lon="-0.06251">
        <ele>-18.279973333333</ele>
        <time>2017-10-15T10:17:10Z</time>
      </trkpt>
      <trkpt lat="44.62998" lon="-0.06263">
        <ele>-17.380073333333</ele>
        <time>2017-10-15T10:17:18Z</time>
      </trkpt>
      <trkpt lat="44.63" lon="-0.06275">
        <ele>-17.479986666667</ele>
        <time>2017-10-15T10:17:24Z</time>
      </trkpt>
      <trkpt lat="44.63005" lon="-0.06285">
        <ele>-18.079813333333</ele>
        <time>2017-10-15T10:17:31Z</time>
      </trkpt>
      <trkpt lat="44.63005" lon="-0.06296">
        <ele>-18.879806666667</ele>
        <time>2017-10-15T10:17:39Z</time>
      </trkpt>
      <trkpt lat="44.63006" lon="-0.06309">
        <ele>-19.37976</ele>
        <time>2017-10-15T10:17:47Z</time>
      </trkpt>
      <trkpt lat="44.63004" lon="-0.06323">
        <ele>-19.579846666667</ele>
        <time>2017-10-15T10:17:52Z</time>
      </trkpt>
      <trkpt lat="44.63004" lon="-0.06334">
        <ele>-19.079826666667</ele>
        <time>2017-10-15T10:17:58Z</time>
      </trkpt>
      <trkpt lat="44.63003" lon="-0.06346">
        <ele>-18.4799</ele>
        <time>2017-10-15T10:18:05Z</time>
      </trkpt>
      <trkpt lat="44.63002" lon="-0.06358">
        <ele>-18.479913333333</ele>
        <time>2017-10-15T10:18:12Z</time>
      </trkpt>
      <trkpt lat="44.63001" lon="-0.0637">
        <ele>-18.37998</ele>
        <time>2017-10-15T10:18:19Z</time>
      </trkpt>
      <trkpt lat="44.63001" lon="-0.06382">
        <ele>-18.17998</ele>
        <time>2017-10-15T10:18:27Z</time>
      </trkpt>
      <trkpt lat="44.63002" lon="-0.06393">
        <ele>-17.679906666667</ele>
        <time>2017-10-15T10:18:35Z</time>
      </trkpt>
      <trkpt lat="44.63002" lon="-0.06405">
        <ele>-17.479913333333</ele>
        <time>2017-10-15T10:18:42Z</time>
      </trkpt>
      <trkpt lat="44.63003" lon="-0.06417">
        <ele>-16.879886666667</ele>
        <time>2017-10-15T10:18:49Z</time>
      </trkpt>
      <trkpt lat="44.63004" lon="-0.06428">
        <ele>-16.779826666667</ele>
        <time>2017-10-15T10:18:55Z</time>
      </trkpt>
      <trkpt lat="44.63007" lon="-0.06438">
        <ele>-16.77972</ele>
        <time>2017-10-15T10:19:00Z</time>
      </trkpt>
      <trkpt lat="44.6301" lon="-0.06448">
        <ele>-16.97962</ele>
        <time>2017-10-15T10:19:05Z</time>
      </trkpt>
      <trkpt lat="44.63014" lon="-0.06459">
        <ele>-16.779433333333</ele>
        <time>2017-10-15T10:19:13Z</time>
      </trkpt>
      <trkpt lat="44.63011" lon="-0.0647">
        <ele>-16.179553333333</ele>
        <time>2017-10-15T10:19:22Z</time>
      </trkpt>
      <trkpt lat="44.63009" lon="-0.06481">
        <ele>-16.27964</ele>
        <time>2017-10-15T10:19:29Z</time>
      </trkpt>
      <trkpt lat="44.63004" lon="-0.06491">
        <ele>-18.079826666667</ele>
        <time>2017-10-15T10:19:36Z</time>
      </trkpt>
      <trkpt lat="44.63003" lon="-0.06503">
        <ele>-18.97988</ele>
        <time>2017-10-15T10:19:42Z</time>
      </trkpt>
      <trkpt lat="44.63002" lon="-0.06515">
        <ele>-18.87992</ele>
        <time>2017-10-15T10:19:48Z</time>
      </trkpt>
      <trkpt lat="44.63001" lon="-0.06526">
        <ele>-18.679973333333</ele>
        <time>2017-10-15T10:19:55Z</time>
      </trkpt>
      <trkpt lat="44.62997" lon="-0.06537">
        <ele>-18.680126666667</ele>
        <time>2017-10-15T10:20:01Z</time>
      </trkpt>
      <trkpt lat="44.62992" lon="-0.06546">
        <ele>-18.280333333333</ele>
        <time>2017-10-15T10:20:06Z</time>
      </trkpt>
      <trkpt lat="44.62989" lon="-0.06558">
        <ele>-17.880446666667</ele>
        <time>2017-10-15T10:20:16Z</time>
      </trkpt>
      <trkpt lat="44.62987" lon="-0.06569">
        <ele>-16.480533333333</ele>
        <time>2017-10-15T10:20:25Z</time>
      </trkpt>
      <trkpt lat="44.62981" lon="-0.06579">
        <ele>-16.080746666667</ele>
        <time>2017-10-15T10:20:31Z</time>
      </trkpt>
      <trkpt lat="44.62975" lon="-0.06586">
        <ele>-15.481</ele>
        <time>2017-10-15T10:20:37Z</time>
      </trkpt>
      <trkpt lat="44.62968" lon="-0.06593">
        <ele>-15.48128</ele>
        <time>2017-10-15T10:20:43Z</time>
      </trkpt>
      <trkpt lat="44.62964" lon="-0.06603">
        <ele>-15.981446666667</ele>
        <time>2017-10-15T10:20:48Z</time>
      </trkpt>
      <trkpt lat="44.62957" lon="-0.06611">
        <ele>-17.981733333333</ele>
        <time>2017-10-15T10:20:53Z</time>
      </trkpt>
      <trkpt lat="44.62953" lon="-0.06619">
        <ele>-19.58188</ele>
        <time>2017-10-15T10:21:01Z</time>
      </trkpt>
      <trkpt lat="44.6295" lon="-0.0663">
        <ele>-20.081986666667</ele>
        <time>2017-10-15T10:21:08Z</time>
      </trkpt>
      <trkpt lat="44.62951" lon="-0.06642">
        <ele>-20.381953333333</ele>
        <time>2017-10-15T10:21:15Z</time>
      </trkpt>
      <trkpt lat="44.62952" lon="-0.06654">
        <ele>-20.581913333333</ele>
        <time>2017-10-15T10:21:20Z</time>
      </trkpt>
      <trkpt lat="44.6295" lon="-0.06665">
        <ele>-20.181986666667</ele>
        <time>2017-10-15T10:21:25Z</time>
      </trkpt>
      <trkpt lat="44.62948" lon="-0.06676">
        <ele>-20.182086666667</ele>
        <time>2017-10-15T10:21:32Z</time>
      </trkpt>
      <trkpt lat="44.62943" lon="-0.06687">
        <ele>-20.282286666667</ele>
        <time>2017-10-15T10:21:37Z</time>
      </trkpt>
      <trkpt lat="44.62939" lon="-0.06697">
        <ele>-20.482433333333</ele>
        <time>2017-10-15T10:21:45Z</time>
      </trkpt>
      <trkpt lat="44.62936" lon="-0.06708">
        <ele>-20.082553333333</ele>
        <time>2017-10-15T10:21:53Z</time>
      </trkpt>
      <trkpt lat="44.62937" lon="-0.0672">
        <ele>-19.682526666667</ele>
        <time>2017-10-15T10:22:01Z</time>
      </trkpt>
      <trkpt lat="44.62928" lon="-0.06717">
        <ele>-17.982873333333</ele>
        <time>2017-10-15T10:22:20Z</time>
      </trkpt>
      <trkpt lat="44.62921" lon="-0.06714">
        <ele>-18.183173333333</ele>
        <time>2017-10-15T10:22:25Z</time>
      </trkpt>
      <trkpt lat="44.62914" lon="-0.06709">
        <ele>-18.68346</ele>
        <time>2017-10-15T10:22:31Z</time>
      </trkpt>
      <trkpt lat="44.62903" lon="-0.0671">
        <ele>-19.383866666667</ele>
        <time>2017-10-15T10:22:36Z</time>
      </trkpt>
      <trkpt lat="44.62895" lon="-0.06709">
        <ele>-19.884213333333</ele>
        <time>2017-10-15T10:22:43Z</time>
      </trkpt>
      <trkpt lat="44.62887" lon="-0.06705">
        <ele>-20.384513333333</ele>
        <time>2017-10-15T10:22:50Z</time>
      </trkpt>
      <trkpt lat="44.62879" lon="-0.06708">
        <ele>-20.784853333333</ele>
        <time>2017-10-15T10:22:55Z</time>
      </trkpt>
      <trkpt lat="44.62871" lon="-0.06708">
        <ele>-21.58518</ele>
        <time>2017-10-15T10:23:00Z</time>
      </trkpt>
      <trkpt lat="44.62863" lon="-0.06705">
        <ele>-23.3855</ele>
        <time>2017-10-15T10:23:09Z</time>
      </trkpt>
      <trkpt lat="44.62856" lon="-0.06697">
        <ele>-24.58578</ele>
        <time>2017-10-15T10:23:17Z</time>
      </trkpt>
      <trkpt lat="44.62851" lon="-0.06686">
        <ele>-23.385946666667</ele>
        <time>2017-10-15T10:23:28Z</time>
      </trkpt>
      <trkpt lat="44.62849" lon="-0.06676">
        <ele>-24.286046666667</ele>
        <time>2017-10-15T10:24:20Z</time>
      </trkpt>
      <trkpt lat="44.62839" lon="-0.06681">
        <ele>-23.786446666667</ele>
        <time>2017-10-15T10:24:25Z</time>
      </trkpt>
      <trkpt lat="44.62836" lon="-0.06685">
        <ele>-23.986553333333</ele>
        <time>2017-10-15T10:24:37Z</time>
      </trkpt>
    </trkseg>
  </trk>
</gpx>